<?xml version="1.0" encoding="UTF-8" standalone="no" ?>
<gpx xmlns="http://www.topografix.com/GPX/1/1" xmlns:xsi="http://www.w3.org/2001/XMLSchema-instance" xsi:schemaLocation="http://www.topografix.com/GPX/1/1 http://www.topografix.com/GPX/1/1/gpx.xsd" version="1.1" creator="VisuGPX - https://www.visugpx.com">
  <metadata>
    <name>2020-06-30 18:23:33</name>
  </metadata>
  <trk>
    <name><![CDATA[2020-06-30 18:23:33]]></name>
    <trkseg>
      <trkpt lat="43.94457" lon="2.27492">
        <ele>193.36</ele>
        <time>2020-06-30T13:32:46Z</time>
      </trkpt>
      <trkpt lat="43.94458" lon="2.27492">
        <ele>193.84</ele>
        <time>2020-06-30T13:32:49Z</time>
      </trkpt>
      <trkpt lat="43.94467" lon="2.27498">
        <ele>193.84</ele>
        <time>2020-06-30T13:32:58Z</time>
      </trkpt>
      <trkpt lat="43.94476" lon="2.27504">
        <ele>193.84</ele>
        <time>2020-06-30T13:33:07Z</time>
      </trkpt>
      <trkpt lat="43.9449" lon="2.27511">
        <ele>194.32</ele>
        <time>2020-06-30T13:33:17Z</time>
      </trkpt>
      <trkpt lat="43.94497" lon="2.27515">
        <ele>194.32</ele>
        <time>2020-06-30T13:33:24Z</time>
      </trkpt>
      <trkpt lat="43.9451" lon="2.27518">
        <ele>194.32</ele>
        <time>2020-06-30T13:33:32Z</time>
      </trkpt>
      <trkpt lat="43.94524" lon="2.27516">
        <ele>195.77</ele>
        <time>2020-06-30T13:33:42Z</time>
      </trkpt>
      <trkpt lat="43.94528" lon="2.27514">
        <ele>194.32</ele>
        <time>2020-06-30T13:33:48Z</time>
      </trkpt>
      <trkpt lat="43.94538" lon="2.2751">
        <ele>192.88</ele>
        <time>2020-06-30T13:33:57Z</time>
      </trkpt>
      <trkpt lat="43.94546" lon="2.27507">
        <ele>191.44</ele>
        <time>2020-06-30T13:34:03Z</time>
      </trkpt>
      <trkpt lat="43.94558" lon="2.27502">
        <ele>188.08</ele>
        <time>2020-06-30T13:34:12Z</time>
      </trkpt>
      <trkpt lat="43.94571" lon="2.27494">
        <ele>187.11</ele>
        <time>2020-06-30T13:34:19Z</time>
      </trkpt>
      <trkpt lat="43.94585" lon="2.2748">
        <ele>186.63</ele>
        <time>2020-06-30T13:34:28Z</time>
      </trkpt>
      <trkpt lat="43.94595" lon="2.27466">
        <ele>187.11</ele>
        <time>2020-06-30T13:34:36Z</time>
      </trkpt>
      <trkpt lat="43.94598" lon="2.27464">
        <ele>187.59</ele>
        <time>2020-06-30T13:34:38Z</time>
      </trkpt>
      <trkpt lat="43.94607" lon="2.27453">
        <ele>189.04</ele>
        <time>2020-06-30T13:34:48Z</time>
      </trkpt>
      <trkpt lat="43.94616" lon="2.27442">
        <ele>189.04</ele>
        <time>2020-06-30T13:34:56Z</time>
      </trkpt>
      <trkpt lat="43.94618" lon="2.27438">
        <ele>189.52</ele>
        <time>2020-06-30T13:34:59Z</time>
      </trkpt>
      <trkpt lat="43.94628" lon="2.27424">
        <ele>191.44</ele>
        <time>2020-06-30T13:35:08Z</time>
      </trkpt>
      <trkpt lat="43.94634" lon="2.2741">
        <ele>192.88</ele>
        <time>2020-06-30T13:35:16Z</time>
      </trkpt>
      <trkpt lat="43.94641" lon="2.27399">
        <ele>192.88</ele>
        <time>2020-06-30T13:35:24Z</time>
      </trkpt>
      <trkpt lat="43.94648" lon="2.27386">
        <ele>192.4</ele>
        <time>2020-06-30T13:35:32Z</time>
      </trkpt>
      <trkpt lat="43.94648" lon="2.27385">
        <ele>192.4</ele>
        <time>2020-06-30T13:35:33Z</time>
      </trkpt>
      <trkpt lat="43.94652" lon="2.27364">
        <ele>192.88</ele>
        <time>2020-06-30T13:35:43Z</time>
      </trkpt>
      <trkpt lat="43.94656" lon="2.27349">
        <ele>194.8</ele>
        <time>2020-06-30T13:35:50Z</time>
      </trkpt>
      <trkpt lat="43.94662" lon="2.27342">
        <ele>199.61</ele>
        <time>2020-06-30T13:35:57Z</time>
      </trkpt>
      <trkpt lat="43.94662" lon="2.27343">
        <ele>200.09</ele>
        <time>2020-06-30T13:35:58Z</time>
      </trkpt>
      <trkpt lat="43.94672" lon="2.27356">
        <ele>199.61</ele>
        <time>2020-06-30T13:36:07Z</time>
      </trkpt>
      <trkpt lat="43.94675" lon="2.2736">
        <ele>199.61</ele>
        <time>2020-06-30T13:36:10Z</time>
      </trkpt>
      <trkpt lat="43.94683" lon="2.27369">
        <ele>198.17</ele>
        <time>2020-06-30T13:36:19Z</time>
      </trkpt>
      <trkpt lat="43.94686" lon="2.27371">
        <ele>197.69</ele>
        <time>2020-06-30T13:36:22Z</time>
      </trkpt>
      <trkpt lat="43.94698" lon="2.27376">
        <ele>196.25</ele>
        <time>2020-06-30T13:36:31Z</time>
      </trkpt>
      <trkpt lat="43.9471" lon="2.2738">
        <ele>195.77</ele>
        <time>2020-06-30T13:36:39Z</time>
      </trkpt>
      <trkpt lat="43.94711" lon="2.2738">
        <ele>195.77</ele>
        <time>2020-06-30T13:36:40Z</time>
      </trkpt>
      <trkpt lat="43.94726" lon="2.27382">
        <ele>198.65</ele>
        <time>2020-06-30T13:36:49Z</time>
      </trkpt>
      <trkpt lat="43.94739" lon="2.27377">
        <ele>202.01</ele>
        <time>2020-06-30T13:36:59Z</time>
      </trkpt>
      <trkpt lat="43.9474" lon="2.27376">
        <ele>202.01</ele>
        <time>2020-06-30T13:37:00Z</time>
      </trkpt>
      <trkpt lat="43.94753" lon="2.27365">
        <ele>204.42</ele>
        <time>2020-06-30T13:37:09Z</time>
      </trkpt>
      <trkpt lat="43.94759" lon="2.2736">
        <ele>206.34</ele>
        <time>2020-06-30T13:37:15Z</time>
      </trkpt>
      <trkpt lat="43.94763" lon="2.27362">
        <ele>205.86</ele>
        <time>2020-06-30T13:37:18Z</time>
      </trkpt>
      <trkpt lat="43.94771" lon="2.27375">
        <ele>204.42</ele>
        <time>2020-06-30T13:37:27Z</time>
      </trkpt>
      <trkpt lat="43.94772" lon="2.27389">
        <ele>202.49</ele>
        <time>2020-06-30T13:37:36Z</time>
      </trkpt>
      <trkpt lat="43.9478" lon="2.27404">
        <ele>199.61</ele>
        <time>2020-06-30T13:37:46Z</time>
      </trkpt>
      <trkpt lat="43.94787" lon="2.27414">
        <ele>194.32</ele>
        <time>2020-06-30T13:37:55Z</time>
      </trkpt>
      <trkpt lat="43.9479" lon="2.27418">
        <ele>192.4</ele>
        <time>2020-06-30T13:37:58Z</time>
      </trkpt>
      <trkpt lat="43.94799" lon="2.27426">
        <ele>190</ele>
        <time>2020-06-30T13:38:05Z</time>
      </trkpt>
      <trkpt lat="43.94814" lon="2.27435">
        <ele>186.15</ele>
        <time>2020-06-30T13:38:14Z</time>
      </trkpt>
      <trkpt lat="43.94835" lon="2.27439">
        <ele>186.15</ele>
        <time>2020-06-30T13:38:23Z</time>
      </trkpt>
      <trkpt lat="43.94852" lon="2.27439">
        <ele>190.48</ele>
        <time>2020-06-30T13:38:31Z</time>
      </trkpt>
      <trkpt lat="43.94855" lon="2.27441">
        <ele>191.92</ele>
        <time>2020-06-30T13:38:33Z</time>
      </trkpt>
      <trkpt lat="43.94863" lon="2.2744">
        <ele>190.96</ele>
        <time>2020-06-30T13:38:40Z</time>
      </trkpt>
      <trkpt lat="43.94866" lon="2.27439">
        <ele>190.48</ele>
        <time>2020-06-30T13:38:42Z</time>
      </trkpt>
      <trkpt lat="43.94873" lon="2.27433">
        <ele>188.08</ele>
        <time>2020-06-30T13:38:50Z</time>
      </trkpt>
      <trkpt lat="43.9488" lon="2.27426">
        <ele>186.15</ele>
        <time>2020-06-30T13:38:58Z</time>
      </trkpt>
      <trkpt lat="43.94893" lon="2.27414">
        <ele>184.23</ele>
        <time>2020-06-30T13:39:07Z</time>
      </trkpt>
      <trkpt lat="43.94898" lon="2.27408">
        <ele>183.75</ele>
        <time>2020-06-30T13:39:10Z</time>
      </trkpt>
      <trkpt lat="43.94907" lon="2.27384">
        <ele>186.15</ele>
        <time>2020-06-30T13:39:21Z</time>
      </trkpt>
      <trkpt lat="43.94909" lon="2.27366">
        <ele>189.04</ele>
        <time>2020-06-30T13:39:29Z</time>
      </trkpt>
      <trkpt lat="43.94914" lon="2.27348">
        <ele>192.88</ele>
        <time>2020-06-30T13:39:37Z</time>
      </trkpt>
      <trkpt lat="43.94922" lon="2.27332">
        <ele>194.8</ele>
        <time>2020-06-30T13:39:47Z</time>
      </trkpt>
      <trkpt lat="43.94929" lon="2.2732">
        <ele>195.77</ele>
        <time>2020-06-30T13:39:56Z</time>
      </trkpt>
      <trkpt lat="43.94935" lon="2.27313">
        <ele>195.28</ele>
        <time>2020-06-30T13:40:03Z</time>
      </trkpt>
      <trkpt lat="43.94947" lon="2.27295">
        <ele>196.73</ele>
        <time>2020-06-30T13:40:14Z</time>
      </trkpt>
      <trkpt lat="43.94957" lon="2.27282">
        <ele>200.57</ele>
        <time>2020-06-30T13:40:22Z</time>
      </trkpt>
      <trkpt lat="43.94963" lon="2.27274">
        <ele>203.94</ele>
        <time>2020-06-30T13:40:30Z</time>
      </trkpt>
      <trkpt lat="43.94973" lon="2.27265">
        <ele>204.42</ele>
        <time>2020-06-30T13:40:38Z</time>
      </trkpt>
      <trkpt lat="43.94985" lon="2.27261">
        <ele>204.42</ele>
        <time>2020-06-30T13:40:48Z</time>
      </trkpt>
      <trkpt lat="43.94996" lon="2.27262">
        <ele>204.42</ele>
        <time>2020-06-30T13:40:55Z</time>
      </trkpt>
      <trkpt lat="43.95009" lon="2.27258">
        <ele>204.9</ele>
        <time>2020-06-30T13:41:02Z</time>
      </trkpt>
      <trkpt lat="43.95022" lon="2.27253">
        <ele>202.49</ele>
        <time>2020-06-30T13:41:10Z</time>
      </trkpt>
      <trkpt lat="43.9503" lon="2.27249">
        <ele>201.05</ele>
        <time>2020-06-30T13:41:17Z</time>
      </trkpt>
      <trkpt lat="43.95038" lon="2.27241">
        <ele>200.09</ele>
        <time>2020-06-30T13:41:24Z</time>
      </trkpt>
      <trkpt lat="43.9504" lon="2.27238">
        <ele>200.09</ele>
        <time>2020-06-30T13:41:26Z</time>
      </trkpt>
      <trkpt lat="43.9505" lon="2.27231">
        <ele>195.28</ele>
        <time>2020-06-30T13:41:35Z</time>
      </trkpt>
      <trkpt lat="43.95055" lon="2.27223">
        <ele>189.04</ele>
        <time>2020-06-30T13:41:44Z</time>
      </trkpt>
      <trkpt lat="43.95065" lon="2.2721">
        <ele>187.11</ele>
        <time>2020-06-30T13:41:54Z</time>
      </trkpt>
      <trkpt lat="43.95071" lon="2.27197">
        <ele>190</ele>
        <time>2020-06-30T13:42:03Z</time>
      </trkpt>
      <trkpt lat="43.95078" lon="2.27189">
        <ele>191.44</ele>
        <time>2020-06-30T13:42:11Z</time>
      </trkpt>
      <trkpt lat="43.95081" lon="2.27185">
        <ele>189.52</ele>
        <time>2020-06-30T13:42:18Z</time>
      </trkpt>
      <trkpt lat="43.95081" lon="2.27184">
        <ele>189.52</ele>
        <time>2020-06-30T13:42:19Z</time>
      </trkpt>
      <trkpt lat="43.95087" lon="2.27177">
        <ele>187.59</ele>
        <time>2020-06-30T13:42:26Z</time>
      </trkpt>
      <trkpt lat="43.95092" lon="2.27172">
        <ele>188.08</ele>
        <time>2020-06-30T13:42:30Z</time>
      </trkpt>
      <trkpt lat="43.95093" lon="2.27162">
        <ele>191.92</ele>
        <time>2020-06-30T13:42:39Z</time>
      </trkpt>
      <trkpt lat="43.95092" lon="2.27158">
        <ele>195.77</ele>
        <time>2020-06-30T13:42:57Z</time>
      </trkpt>
      <trkpt lat="43.95095" lon="2.27159">
        <ele>199.61</ele>
        <time>2020-06-30T13:43:21Z</time>
      </trkpt>
      <trkpt lat="43.95095" lon="2.27162">
        <ele>201.05</ele>
        <time>2020-06-30T13:43:47Z</time>
      </trkpt>
      <trkpt lat="43.95099" lon="2.27161">
        <ele>203.94</ele>
        <time>2020-06-30T13:44:02Z</time>
      </trkpt>
      <trkpt lat="43.95101" lon="2.27162">
        <ele>203.94</ele>
        <time>2020-06-30T13:44:04Z</time>
      </trkpt>
      <trkpt lat="43.95103" lon="2.27166">
        <ele>203.46</ele>
        <time>2020-06-30T13:44:07Z</time>
      </trkpt>
      <trkpt lat="43.95102" lon="2.2718">
        <ele>200.57</ele>
        <time>2020-06-30T13:44:16Z</time>
      </trkpt>
      <trkpt lat="43.95101" lon="2.27193">
        <ele>199.61</ele>
        <time>2020-06-30T13:44:24Z</time>
      </trkpt>
      <trkpt lat="43.95102" lon="2.272">
        <ele>197.21</ele>
        <time>2020-06-30T13:44:30Z</time>
      </trkpt>
      <trkpt lat="43.95101" lon="2.27212">
        <ele>192.88</ele>
        <time>2020-06-30T13:44:39Z</time>
      </trkpt>
      <trkpt lat="43.95101" lon="2.27223">
        <ele>190.48</ele>
        <time>2020-06-30T13:44:47Z</time>
      </trkpt>
      <trkpt lat="43.95101" lon="2.27233">
        <ele>189.52</ele>
        <time>2020-06-30T13:44:56Z</time>
      </trkpt>
      <trkpt lat="43.95099" lon="2.27238">
        <ele>187.59</ele>
        <time>2020-06-30T13:45:07Z</time>
      </trkpt>
      <trkpt lat="43.95098" lon="2.27247">
        <ele>187.11</ele>
        <time>2020-06-30T13:45:15Z</time>
      </trkpt>
      <trkpt lat="43.95097" lon="2.27258">
        <ele>184.23</ele>
        <time>2020-06-30T13:45:22Z</time>
      </trkpt>
      <trkpt lat="43.95097" lon="2.27263">
        <ele>179.42</ele>
        <time>2020-06-30T13:45:29Z</time>
      </trkpt>
      <trkpt lat="43.951" lon="2.27266">
        <ele>177.98</ele>
        <time>2020-06-30T13:45:33Z</time>
      </trkpt>
      <trkpt lat="43.95104" lon="2.27271">
        <ele>177.98</ele>
        <time>2020-06-30T13:45:36Z</time>
      </trkpt>
      <trkpt lat="43.95113" lon="2.27281">
        <ele>178.94</ele>
        <time>2020-06-30T13:45:45Z</time>
      </trkpt>
      <trkpt lat="43.95118" lon="2.27276">
        <ele>180.87</ele>
        <time>2020-06-30T13:45:53Z</time>
      </trkpt>
      <trkpt lat="43.95123" lon="2.27268">
        <ele>182.31</ele>
        <time>2020-06-30T13:46:02Z</time>
      </trkpt>
      <trkpt lat="43.95123" lon="2.27267">
        <ele>182.31</ele>
        <time>2020-06-30T13:46:03Z</time>
      </trkpt>
      <trkpt lat="43.95129" lon="2.27254">
        <ele>184.71</ele>
        <time>2020-06-30T13:46:13Z</time>
      </trkpt>
      <trkpt lat="43.95137" lon="2.27245">
        <ele>186.63</ele>
        <time>2020-06-30T13:46:21Z</time>
      </trkpt>
      <trkpt lat="43.95145" lon="2.27234">
        <ele>189.52</ele>
        <time>2020-06-30T13:46:29Z</time>
      </trkpt>
      <trkpt lat="43.9515" lon="2.27223">
        <ele>192.4</ele>
        <time>2020-06-30T13:46:38Z</time>
      </trkpt>
      <trkpt lat="43.95153" lon="2.27215">
        <ele>192.4</ele>
        <time>2020-06-30T13:46:46Z</time>
      </trkpt>
      <trkpt lat="43.95158" lon="2.27204">
        <ele>191.92</ele>
        <time>2020-06-30T13:46:55Z</time>
      </trkpt>
      <trkpt lat="43.95162" lon="2.27195">
        <ele>190.96</ele>
        <time>2020-06-30T13:47:02Z</time>
      </trkpt>
      <trkpt lat="43.95167" lon="2.27176">
        <ele>191.92</ele>
        <time>2020-06-30T13:47:13Z</time>
      </trkpt>
      <trkpt lat="43.95169" lon="2.2716">
        <ele>193.36</ele>
        <time>2020-06-30T13:47:22Z</time>
      </trkpt>
      <trkpt lat="43.95171" lon="2.27138">
        <ele>197.69</ele>
        <time>2020-06-30T13:47:32Z</time>
      </trkpt>
      <trkpt lat="43.95171" lon="2.27123">
        <ele>201.53</ele>
        <time>2020-06-30T13:47:40Z</time>
      </trkpt>
      <trkpt lat="43.9517" lon="2.27102">
        <ele>204.42</ele>
        <time>2020-06-30T13:47:50Z</time>
      </trkpt>
      <trkpt lat="43.95172" lon="2.27084">
        <ele>206.82</ele>
        <time>2020-06-30T13:48:00Z</time>
      </trkpt>
      <trkpt lat="43.95173" lon="2.27073">
        <ele>209.22</ele>
        <time>2020-06-30T13:48:08Z</time>
      </trkpt>
      <trkpt lat="43.95174" lon="2.27075">
        <ele>210.19</ele>
        <time>2020-06-30T13:48:10Z</time>
      </trkpt>
      <trkpt lat="43.95176" lon="2.27088">
        <ele>214.99</ele>
        <time>2020-06-30T13:48:19Z</time>
      </trkpt>
      <trkpt lat="43.95177" lon="2.27103">
        <ele>217.88</ele>
        <time>2020-06-30T13:48:28Z</time>
      </trkpt>
      <trkpt lat="43.95178" lon="2.2711">
        <ele>217.88</ele>
        <time>2020-06-30T13:48:32Z</time>
      </trkpt>
      <trkpt lat="43.95182" lon="2.27121">
        <ele>218.36</ele>
        <time>2020-06-30T13:48:40Z</time>
      </trkpt>
      <trkpt lat="43.95185" lon="2.27136">
        <ele>218.84</ele>
        <time>2020-06-30T13:48:49Z</time>
      </trkpt>
      <trkpt lat="43.95186" lon="2.27151">
        <ele>219.32</ele>
        <time>2020-06-30T13:48:58Z</time>
      </trkpt>
      <trkpt lat="43.95185" lon="2.27158">
        <ele>219.8</ele>
        <time>2020-06-30T13:49:01Z</time>
      </trkpt>
      <trkpt lat="43.95185" lon="2.27174">
        <ele>224.12</ele>
        <time>2020-06-30T13:49:09Z</time>
      </trkpt>
      <trkpt lat="43.95185" lon="2.27178">
        <ele>225.09</ele>
        <time>2020-06-30T13:49:11Z</time>
      </trkpt>
      <trkpt lat="43.95184" lon="2.27188">
        <ele>227.01</ele>
        <time>2020-06-30T13:49:18Z</time>
      </trkpt>
      <trkpt lat="43.95184" lon="2.27205">
        <ele>229.89</ele>
        <time>2020-06-30T13:49:27Z</time>
      </trkpt>
      <trkpt lat="43.95184" lon="2.27217">
        <ele>233.26</ele>
        <time>2020-06-30T13:49:35Z</time>
      </trkpt>
      <trkpt lat="43.95184" lon="2.2723">
        <ele>237.1</ele>
        <time>2020-06-30T13:49:44Z</time>
      </trkpt>
      <trkpt lat="43.95183" lon="2.27241">
        <ele>238.54</ele>
        <time>2020-06-30T13:49:52Z</time>
      </trkpt>
      <trkpt lat="43.9518" lon="2.27258">
        <ele>238.54</ele>
        <time>2020-06-30T13:50:01Z</time>
      </trkpt>
      <trkpt lat="43.95181" lon="2.27272">
        <ele>239.51</ele>
        <time>2020-06-30T13:50:10Z</time>
      </trkpt>
      <trkpt lat="43.95182" lon="2.27279">
        <ele>239.51</ele>
        <time>2020-06-30T13:50:17Z</time>
      </trkpt>
      <trkpt lat="43.9518" lon="2.27285">
        <ele>239.02</ele>
        <time>2020-06-30T13:50:25Z</time>
      </trkpt>
      <trkpt lat="43.95178" lon="2.27289">
        <ele>238.06</ele>
        <time>2020-06-30T13:50:32Z</time>
      </trkpt>
      <trkpt lat="43.95179" lon="2.27289">
        <ele>238.06</ele>
        <time>2020-06-30T13:50:33Z</time>
      </trkpt>
      <trkpt lat="43.95181" lon="2.27285">
        <ele>239.02</ele>
        <time>2020-06-30T13:50:41Z</time>
      </trkpt>
      <trkpt lat="43.95182" lon="2.27274">
        <ele>238.54</ele>
        <time>2020-06-30T13:50:49Z</time>
      </trkpt>
      <trkpt lat="43.95181" lon="2.27265">
        <ele>237.1</ele>
        <time>2020-06-30T13:50:56Z</time>
      </trkpt>
      <trkpt lat="43.95183" lon="2.27253">
        <ele>234.22</ele>
        <time>2020-06-30T13:51:04Z</time>
      </trkpt>
      <trkpt lat="43.95186" lon="2.27238">
        <ele>229.89</ele>
        <time>2020-06-30T13:51:13Z</time>
      </trkpt>
      <trkpt lat="43.95187" lon="2.27224">
        <ele>228.45</ele>
        <time>2020-06-30T13:51:21Z</time>
      </trkpt>
      <trkpt lat="43.95189" lon="2.27209">
        <ele>223.64</ele>
        <time>2020-06-30T13:51:30Z</time>
      </trkpt>
      <trkpt lat="43.95193" lon="2.27191">
        <ele>215.47</ele>
        <time>2020-06-30T13:51:41Z</time>
      </trkpt>
      <trkpt lat="43.95193" lon="2.27179">
        <ele>211.15</ele>
        <time>2020-06-30T13:51:49Z</time>
      </trkpt>
      <trkpt lat="43.95193" lon="2.27165">
        <ele>207.78</ele>
        <time>2020-06-30T13:51:58Z</time>
      </trkpt>
      <trkpt lat="43.95191" lon="2.27148">
        <ele>205.38</ele>
        <time>2020-06-30T13:52:07Z</time>
      </trkpt>
      <trkpt lat="43.95189" lon="2.27132">
        <ele>201.53</ele>
        <time>2020-06-30T13:52:16Z</time>
      </trkpt>
      <trkpt lat="43.95189" lon="2.2713">
        <ele>201.05</ele>
        <time>2020-06-30T13:52:17Z</time>
      </trkpt>
      <trkpt lat="43.95184" lon="2.27108">
        <ele>202.01</ele>
        <time>2020-06-30T13:52:27Z</time>
      </trkpt>
      <trkpt lat="43.95182" lon="2.27096">
        <ele>198.65</ele>
        <time>2020-06-30T13:52:35Z</time>
      </trkpt>
      <trkpt lat="43.9518" lon="2.2708">
        <ele>194.8</ele>
        <time>2020-06-30T13:52:44Z</time>
      </trkpt>
      <trkpt lat="43.9518" lon="2.27078">
        <ele>194.32</ele>
        <time>2020-06-30T13:52:45Z</time>
      </trkpt>
      <trkpt lat="43.95173" lon="2.27065">
        <ele>188.56</ele>
        <time>2020-06-30T13:52:55Z</time>
      </trkpt>
      <trkpt lat="43.95168" lon="2.27052">
        <ele>185.19</ele>
        <time>2020-06-30T13:53:04Z</time>
      </trkpt>
      <trkpt lat="43.95163" lon="2.27037">
        <ele>183.75</ele>
        <time>2020-06-30T13:53:12Z</time>
      </trkpt>
      <trkpt lat="43.95155" lon="2.27031">
        <ele>183.75</ele>
        <time>2020-06-30T13:53:20Z</time>
      </trkpt>
      <trkpt lat="43.95148" lon="2.27023">
        <ele>184.71</ele>
        <time>2020-06-30T13:53:27Z</time>
      </trkpt>
      <trkpt lat="43.9514" lon="2.2701">
        <ele>187.11</ele>
        <time>2020-06-30T13:53:37Z</time>
      </trkpt>
      <trkpt lat="43.95134" lon="2.27003">
        <ele>188.56</ele>
        <time>2020-06-30T13:53:46Z</time>
      </trkpt>
      <trkpt lat="43.9512" lon="2.26994">
        <ele>195.77</ele>
        <time>2020-06-30T13:53:55Z</time>
      </trkpt>
      <trkpt lat="43.95104" lon="2.26991">
        <ele>204.9</ele>
        <time>2020-06-30T13:54:05Z</time>
      </trkpt>
      <trkpt lat="43.95097" lon="2.26991">
        <ele>208.74</ele>
        <time>2020-06-30T13:54:10Z</time>
      </trkpt>
      <trkpt lat="43.95084" lon="2.26992">
        <ele>211.15</ele>
        <time>2020-06-30T13:54:21Z</time>
      </trkpt>
      <trkpt lat="43.95075" lon="2.26994">
        <ele>215.47</ele>
        <time>2020-06-30T13:54:31Z</time>
      </trkpt>
      <trkpt lat="43.95066" lon="2.26995">
        <ele>217.88</ele>
        <time>2020-06-30T13:54:40Z</time>
      </trkpt>
      <trkpt lat="43.95056" lon="2.26995">
        <ele>221.24</ele>
        <time>2020-06-30T13:54:49Z</time>
      </trkpt>
      <trkpt lat="43.95046" lon="2.26994">
        <ele>224.12</ele>
        <time>2020-06-30T13:54:58Z</time>
      </trkpt>
      <trkpt lat="43.95036" lon="2.26994">
        <ele>227.01</ele>
        <time>2020-06-30T13:55:08Z</time>
      </trkpt>
      <trkpt lat="43.95027" lon="2.26994">
        <ele>230.37</ele>
        <time>2020-06-30T13:55:15Z</time>
      </trkpt>
      <trkpt lat="43.95018" lon="2.26993">
        <ele>234.7</ele>
        <time>2020-06-30T13:55:23Z</time>
      </trkpt>
      <trkpt lat="43.95008" lon="2.26992">
        <ele>239.51</ele>
        <time>2020-06-30T13:55:31Z</time>
      </trkpt>
      <trkpt lat="43.95001" lon="2.26993">
        <ele>243.35</ele>
        <time>2020-06-30T13:55:36Z</time>
      </trkpt>
      <trkpt lat="43.94996" lon="2.26995">
        <ele>245.27</ele>
        <time>2020-06-30T13:55:39Z</time>
      </trkpt>
      <trkpt lat="43.94985" lon="2.26999">
        <ele>247.2</ele>
        <time>2020-06-30T13:55:49Z</time>
      </trkpt>
      <trkpt lat="43.94982" lon="2.27002">
        <ele>247.68</ele>
        <time>2020-06-30T13:55:53Z</time>
      </trkpt>
      <trkpt lat="43.94972" lon="2.27014">
        <ele>250.56</ele>
        <time>2020-06-30T13:56:03Z</time>
      </trkpt>
      <trkpt lat="43.94969" lon="2.27019">
        <ele>252.96</ele>
        <time>2020-06-30T13:56:07Z</time>
      </trkpt>
      <trkpt lat="43.94962" lon="2.27035">
        <ele>255.37</ele>
        <time>2020-06-30T13:56:18Z</time>
      </trkpt>
      <trkpt lat="43.94961" lon="2.27036">
        <ele>255.85</ele>
        <time>2020-06-30T13:56:19Z</time>
      </trkpt>
      <trkpt lat="43.94954" lon="2.27042">
        <ele>257.77</ele>
        <time>2020-06-30T13:56:28Z</time>
      </trkpt>
      <trkpt lat="43.94949" lon="2.27036">
        <ele>258.73</ele>
        <time>2020-06-30T13:56:37Z</time>
      </trkpt>
      <trkpt lat="43.94948" lon="2.27035">
        <ele>260.65</ele>
        <time>2020-06-30T13:56:43Z</time>
      </trkpt>
      <trkpt lat="43.94947" lon="2.27034">
        <ele>262.1</ele>
        <time>2020-06-30T13:56:52Z</time>
      </trkpt>
      <trkpt lat="43.94948" lon="2.27033">
        <ele>263.06</ele>
        <time>2020-06-30T13:57:00Z</time>
      </trkpt>
      <trkpt lat="43.94946" lon="2.27035">
        <ele>264.98</ele>
        <time>2020-06-30T13:57:05Z</time>
      </trkpt>
      <trkpt lat="43.94944" lon="2.27035">
        <ele>264.98</ele>
        <time>2020-06-30T13:57:19Z</time>
      </trkpt>
      <trkpt lat="43.94945" lon="2.27032">
        <ele>265.46</ele>
        <time>2020-06-30T13:57:26Z</time>
      </trkpt>
      <trkpt lat="43.94945" lon="2.27032">
        <ele>265.94</ele>
        <time>2020-06-30T13:57:28Z</time>
      </trkpt>
      <trkpt lat="43.94949" lon="2.27026">
        <ele>266.9</ele>
        <time>2020-06-30T13:57:34Z</time>
      </trkpt>
      <trkpt lat="43.94949" lon="2.27025">
        <ele>266.42</ele>
        <time>2020-06-30T13:57:35Z</time>
      </trkpt>
      <trkpt lat="43.94949" lon="2.27022">
        <ele>266.42</ele>
        <time>2020-06-30T13:57:37Z</time>
      </trkpt>
      <trkpt lat="43.94952" lon="2.27011">
        <ele>266.42</ele>
        <time>2020-06-30T13:57:45Z</time>
      </trkpt>
      <trkpt lat="43.94956" lon="2.26998">
        <ele>267.86</ele>
        <time>2020-06-30T13:57:54Z</time>
      </trkpt>
      <trkpt lat="43.94966" lon="2.26977">
        <ele>269.31</ele>
        <time>2020-06-30T13:58:05Z</time>
      </trkpt>
      <trkpt lat="43.94968" lon="2.26975">
        <ele>269.79</ele>
        <time>2020-06-30T13:58:07Z</time>
      </trkpt>
      <trkpt lat="43.94972" lon="2.26969">
        <ele>270.75</ele>
        <time>2020-06-30T13:58:15Z</time>
      </trkpt>
      <trkpt lat="43.94977" lon="2.26964">
        <ele>272.19</ele>
        <time>2020-06-30T13:58:24Z</time>
      </trkpt>
      <trkpt lat="43.94985" lon="2.26958">
        <ele>272.67</ele>
        <time>2020-06-30T13:58:31Z</time>
      </trkpt>
      <trkpt lat="43.94992" lon="2.26951">
        <ele>273.63</ele>
        <time>2020-06-30T13:58:39Z</time>
      </trkpt>
      <trkpt lat="43.94996" lon="2.26947">
        <ele>274.11</ele>
        <time>2020-06-30T13:58:43Z</time>
      </trkpt>
      <trkpt lat="43.95005" lon="2.26934">
        <ele>278.44</ele>
        <time>2020-06-30T13:58:54Z</time>
      </trkpt>
      <trkpt lat="43.95014" lon="2.26925">
        <ele>281.8</ele>
        <time>2020-06-30T13:59:03Z</time>
      </trkpt>
      <trkpt lat="43.9502" lon="2.26917">
        <ele>283.73</ele>
        <time>2020-06-30T13:59:10Z</time>
      </trkpt>
      <trkpt lat="43.95023" lon="2.26914">
        <ele>284.69</ele>
        <time>2020-06-30T13:59:13Z</time>
      </trkpt>
      <trkpt lat="43.95029" lon="2.26903">
        <ele>288.05</ele>
        <time>2020-06-30T13:59:22Z</time>
      </trkpt>
      <trkpt lat="43.95034" lon="2.26896">
        <ele>290.46</ele>
        <time>2020-06-30T13:59:30Z</time>
      </trkpt>
      <trkpt lat="43.95038" lon="2.26889">
        <ele>292.38</ele>
        <time>2020-06-30T13:59:37Z</time>
      </trkpt>
      <trkpt lat="43.95041" lon="2.26885">
        <ele>293.34</ele>
        <time>2020-06-30T13:59:41Z</time>
      </trkpt>
      <trkpt lat="43.95048" lon="2.26876">
        <ele>294.78</ele>
        <time>2020-06-30T13:59:50Z</time>
      </trkpt>
      <trkpt lat="43.95056" lon="2.26866">
        <ele>295.74</ele>
        <time>2020-06-30T14:00:00Z</time>
      </trkpt>
      <trkpt lat="43.9506" lon="2.26859">
        <ele>297.18</ele>
        <time>2020-06-30T14:00:06Z</time>
      </trkpt>
      <trkpt lat="43.95067" lon="2.26849">
        <ele>299.11</ele>
        <time>2020-06-30T14:00:15Z</time>
      </trkpt>
      <trkpt lat="43.95074" lon="2.26842">
        <ele>300.55</ele>
        <time>2020-06-30T14:00:23Z</time>
      </trkpt>
      <trkpt lat="43.95081" lon="2.26835">
        <ele>302.47</ele>
        <time>2020-06-30T14:00:32Z</time>
      </trkpt>
      <trkpt lat="43.95087" lon="2.2683">
        <ele>303.91</ele>
        <time>2020-06-30T14:00:40Z</time>
      </trkpt>
      <trkpt lat="43.95097" lon="2.26831">
        <ele>303.91</ele>
        <time>2020-06-30T14:00:49Z</time>
      </trkpt>
      <trkpt lat="43.95099" lon="2.26831">
        <ele>303.43</ele>
        <time>2020-06-30T14:00:50Z</time>
      </trkpt>
      <trkpt lat="43.95108" lon="2.26833">
        <ele>301.99</ele>
        <time>2020-06-30T14:00:59Z</time>
      </trkpt>
      <trkpt lat="43.95117" lon="2.26835">
        <ele>299.59</ele>
        <time>2020-06-30T14:01:07Z</time>
      </trkpt>
      <trkpt lat="43.95129" lon="2.26838">
        <ele>298.15</ele>
        <time>2020-06-30T14:01:17Z</time>
      </trkpt>
      <trkpt lat="43.95137" lon="2.26841">
        <ele>297.67</ele>
        <time>2020-06-30T14:01:24Z</time>
      </trkpt>
      <trkpt lat="43.95147" lon="2.26842">
        <ele>295.74</ele>
        <time>2020-06-30T14:01:33Z</time>
      </trkpt>
      <trkpt lat="43.95158" lon="2.26843">
        <ele>293.82</ele>
        <time>2020-06-30T14:01:42Z</time>
      </trkpt>
      <trkpt lat="43.9516" lon="2.26843">
        <ele>293.34</ele>
        <time>2020-06-30T14:01:44Z</time>
      </trkpt>
      <trkpt lat="43.95169" lon="2.26848">
        <ele>292.38</ele>
        <time>2020-06-30T14:01:52Z</time>
      </trkpt>
      <trkpt lat="43.95177" lon="2.26856">
        <ele>290.94</ele>
        <time>2020-06-30T14:02:01Z</time>
      </trkpt>
      <trkpt lat="43.95183" lon="2.26864">
        <ele>289.49</ele>
        <time>2020-06-30T14:02:09Z</time>
      </trkpt>
      <trkpt lat="43.9519" lon="2.26876">
        <ele>288.05</ele>
        <time>2020-06-30T14:02:18Z</time>
      </trkpt>
      <trkpt lat="43.9519" lon="2.26877">
        <ele>287.57</ele>
        <time>2020-06-30T14:02:19Z</time>
      </trkpt>
      <trkpt lat="43.95202" lon="2.26885">
        <ele>287.09</ele>
        <time>2020-06-30T14:02:30Z</time>
      </trkpt>
      <trkpt lat="43.95203" lon="2.26885">
        <ele>287.09</ele>
        <time>2020-06-30T14:02:31Z</time>
      </trkpt>
      <trkpt lat="43.95209" lon="2.26887">
        <ele>286.13</ele>
        <time>2020-06-30T14:02:37Z</time>
      </trkpt>
      <trkpt lat="43.95222" lon="2.26896">
        <ele>286.61</ele>
        <time>2020-06-30T14:02:48Z</time>
      </trkpt>
      <trkpt lat="43.95232" lon="2.26902">
        <ele>287.57</ele>
        <time>2020-06-30T14:02:57Z</time>
      </trkpt>
      <trkpt lat="43.95239" lon="2.26909">
        <ele>289.01</ele>
        <time>2020-06-30T14:03:05Z</time>
      </trkpt>
      <trkpt lat="43.95243" lon="2.26912">
        <ele>289.97</ele>
        <time>2020-06-30T14:03:10Z</time>
      </trkpt>
      <trkpt lat="43.95253" lon="2.2692">
        <ele>293.34</ele>
        <time>2020-06-30T14:03:21Z</time>
      </trkpt>
      <trkpt lat="43.95257" lon="2.26923">
        <ele>296.22</ele>
        <time>2020-06-30T14:03:29Z</time>
      </trkpt>
      <trkpt lat="43.95262" lon="2.26928">
        <ele>298.63</ele>
        <time>2020-06-30T14:03:38Z</time>
      </trkpt>
      <trkpt lat="43.95265" lon="2.26932">
        <ele>300.07</ele>
        <time>2020-06-30T14:03:42Z</time>
      </trkpt>
      <trkpt lat="43.95272" lon="2.26942">
        <ele>301.99</ele>
        <time>2020-06-30T14:03:53Z</time>
      </trkpt>
      <trkpt lat="43.95275" lon="2.26945">
        <ele>302.47</ele>
        <time>2020-06-30T14:04:00Z</time>
      </trkpt>
      <trkpt lat="43.95275" lon="2.26946">
        <ele>302.95</ele>
        <time>2020-06-30T14:04:01Z</time>
      </trkpt>
      <trkpt lat="43.95285" lon="2.26948">
        <ele>304.88</ele>
        <time>2020-06-30T14:04:11Z</time>
      </trkpt>
      <trkpt lat="43.95293" lon="2.26952">
        <ele>306.32</ele>
        <time>2020-06-30T14:04:20Z</time>
      </trkpt>
      <trkpt lat="43.95299" lon="2.26956">
        <ele>308.24</ele>
        <time>2020-06-30T14:04:28Z</time>
      </trkpt>
      <trkpt lat="43.95309" lon="2.26963">
        <ele>310.64</ele>
        <time>2020-06-30T14:04:39Z</time>
      </trkpt>
      <trkpt lat="43.95316" lon="2.26966">
        <ele>313.05</ele>
        <time>2020-06-30T14:04:46Z</time>
      </trkpt>
      <trkpt lat="43.9532" lon="2.26969">
        <ele>314.01</ele>
        <time>2020-06-30T14:04:53Z</time>
      </trkpt>
      <trkpt lat="43.9532" lon="2.26973">
        <ele>314.49</ele>
        <time>2020-06-30T14:05:07Z</time>
      </trkpt>
      <trkpt lat="43.95321" lon="2.26991">
        <ele>313.05</ele>
        <time>2020-06-30T14:05:17Z</time>
      </trkpt>
      <trkpt lat="43.95322" lon="2.26992">
        <ele>312.57</ele>
        <time>2020-06-30T14:05:18Z</time>
      </trkpt>
      <trkpt lat="43.95331" lon="2.26997">
        <ele>316.41</ele>
        <time>2020-06-30T14:05:28Z</time>
      </trkpt>
      <trkpt lat="43.95339" lon="2.26989">
        <ele>317.37</ele>
        <time>2020-06-30T14:05:36Z</time>
      </trkpt>
      <trkpt lat="43.95342" lon="2.26974">
        <ele>317.85</ele>
        <time>2020-06-30T14:05:45Z</time>
      </trkpt>
      <trkpt lat="43.95345" lon="2.26963">
        <ele>317.85</ele>
        <time>2020-06-30T14:05:54Z</time>
      </trkpt>
      <trkpt lat="43.95351" lon="2.26956">
        <ele>316.89</ele>
        <time>2020-06-30T14:06:03Z</time>
      </trkpt>
      <trkpt lat="43.95361" lon="2.26953">
        <ele>314.97</ele>
        <time>2020-06-30T14:06:13Z</time>
      </trkpt>
      <trkpt lat="43.95369" lon="2.2695">
        <ele>313.53</ele>
        <time>2020-06-30T14:06:20Z</time>
      </trkpt>
      <trkpt lat="43.9538" lon="2.26948">
        <ele>311.12</ele>
        <time>2020-06-30T14:06:29Z</time>
      </trkpt>
      <trkpt lat="43.9539" lon="2.26945">
        <ele>308.24</ele>
        <time>2020-06-30T14:06:38Z</time>
      </trkpt>
      <trkpt lat="43.954" lon="2.26943">
        <ele>306.32</ele>
        <time>2020-06-30T14:06:48Z</time>
      </trkpt>
      <trkpt lat="43.95413" lon="2.2694">
        <ele>304.39</ele>
        <time>2020-06-30T14:06:58Z</time>
      </trkpt>
      <trkpt lat="43.95422" lon="2.26938">
        <ele>302.47</ele>
        <time>2020-06-30T14:07:06Z</time>
      </trkpt>
      <trkpt lat="43.95433" lon="2.26936">
        <ele>301.03</ele>
        <time>2020-06-30T14:07:14Z</time>
      </trkpt>
      <trkpt lat="43.95444" lon="2.26938">
        <ele>300.55</ele>
        <time>2020-06-30T14:07:23Z</time>
      </trkpt>
      <trkpt lat="43.95457" lon="2.26939">
        <ele>299.11</ele>
        <time>2020-06-30T14:07:33Z</time>
      </trkpt>
      <trkpt lat="43.95467" lon="2.2694">
        <ele>298.15</ele>
        <time>2020-06-30T14:07:42Z</time>
      </trkpt>
      <trkpt lat="43.95478" lon="2.26939">
        <ele>296.22</ele>
        <time>2020-06-30T14:07:51Z</time>
      </trkpt>
      <trkpt lat="43.95489" lon="2.26936">
        <ele>295.74</ele>
        <time>2020-06-30T14:07:59Z</time>
      </trkpt>
      <trkpt lat="43.95496" lon="2.26936">
        <ele>294.3</ele>
        <time>2020-06-30T14:08:05Z</time>
      </trkpt>
      <trkpt lat="43.95507" lon="2.26935">
        <ele>292.86</ele>
        <time>2020-06-30T14:08:13Z</time>
      </trkpt>
      <trkpt lat="43.9552" lon="2.26934">
        <ele>290.94</ele>
        <time>2020-06-30T14:08:21Z</time>
      </trkpt>
      <trkpt lat="43.95531" lon="2.26934">
        <ele>289.97</ele>
        <time>2020-06-30T14:08:29Z</time>
      </trkpt>
      <trkpt lat="43.95544" lon="2.26933">
        <ele>290.94</ele>
        <time>2020-06-30T14:08:37Z</time>
      </trkpt>
      <trkpt lat="43.95551" lon="2.26932">
        <ele>288.53</ele>
        <time>2020-06-30T14:08:45Z</time>
      </trkpt>
      <trkpt lat="43.95559" lon="2.26932">
        <ele>286.61</ele>
        <time>2020-06-30T14:08:53Z</time>
      </trkpt>
      <trkpt lat="43.95567" lon="2.26931">
        <ele>285.65</ele>
        <time>2020-06-30T14:09:00Z</time>
      </trkpt>
      <trkpt lat="43.95574" lon="2.26928">
        <ele>284.69</ele>
        <time>2020-06-30T14:09:08Z</time>
      </trkpt>
      <trkpt lat="43.9558" lon="2.26924">
        <ele>283.25</ele>
        <time>2020-06-30T14:09:14Z</time>
      </trkpt>
      <trkpt lat="43.95585" lon="2.26926">
        <ele>281.8</ele>
        <time>2020-06-30T14:09:17Z</time>
      </trkpt>
      <trkpt lat="43.95596" lon="2.26928">
        <ele>279.4</ele>
        <time>2020-06-30T14:09:25Z</time>
      </trkpt>
      <trkpt lat="43.95597" lon="2.26928">
        <ele>279.4</ele>
        <time>2020-06-30T14:09:26Z</time>
      </trkpt>
      <trkpt lat="43.95605" lon="2.26926">
        <ele>277.96</ele>
        <time>2020-06-30T14:09:32Z</time>
      </trkpt>
      <trkpt lat="43.95614" lon="2.26921">
        <ele>275.56</ele>
        <time>2020-06-30T14:09:40Z</time>
      </trkpt>
      <trkpt lat="43.95622" lon="2.26914">
        <ele>274.59</ele>
        <time>2020-06-30T14:09:48Z</time>
      </trkpt>
      <trkpt lat="43.95628" lon="2.26909">
        <ele>273.63</ele>
        <time>2020-06-30T14:09:55Z</time>
      </trkpt>
      <trkpt lat="43.95639" lon="2.26903">
        <ele>275.07</ele>
        <time>2020-06-30T14:10:05Z</time>
      </trkpt>
      <trkpt lat="43.95654" lon="2.26896">
        <ele>278.44</ele>
        <time>2020-06-30T14:10:15Z</time>
      </trkpt>
      <trkpt lat="43.95666" lon="2.26887">
        <ele>278.44</ele>
        <time>2020-06-30T14:10:25Z</time>
      </trkpt>
      <trkpt lat="43.95675" lon="2.26877">
        <ele>278.44</ele>
        <time>2020-06-30T14:10:33Z</time>
      </trkpt>
      <trkpt lat="43.95684" lon="2.26865">
        <ele>280.36</ele>
        <time>2020-06-30T14:10:41Z</time>
      </trkpt>
      <trkpt lat="43.95691" lon="2.26857">
        <ele>284.69</ele>
        <time>2020-06-30T14:10:49Z</time>
      </trkpt>
      <trkpt lat="43.95695" lon="2.26849">
        <ele>286.61</ele>
        <time>2020-06-30T14:10:56Z</time>
      </trkpt>
      <trkpt lat="43.95702" lon="2.26843">
        <ele>288.05</ele>
        <time>2020-06-30T14:11:03Z</time>
      </trkpt>
      <trkpt lat="43.95709" lon="2.26838">
        <ele>287.57</ele>
        <time>2020-06-30T14:11:10Z</time>
      </trkpt>
      <trkpt lat="43.95716" lon="2.26832">
        <ele>287.09</ele>
        <time>2020-06-30T14:11:17Z</time>
      </trkpt>
      <trkpt lat="43.9572" lon="2.26823">
        <ele>287.09</ele>
        <time>2020-06-30T14:11:24Z</time>
      </trkpt>
      <trkpt lat="43.95726" lon="2.26816">
        <ele>287.09</ele>
        <time>2020-06-30T14:11:30Z</time>
      </trkpt>
      <trkpt lat="43.95733" lon="2.26804">
        <ele>287.57</ele>
        <time>2020-06-30T14:11:39Z</time>
      </trkpt>
      <trkpt lat="43.95737" lon="2.26797">
        <ele>287.57</ele>
        <time>2020-06-30T14:11:43Z</time>
      </trkpt>
      <trkpt lat="43.95748" lon="2.26781">
        <ele>287.09</ele>
        <time>2020-06-30T14:11:53Z</time>
      </trkpt>
      <trkpt lat="43.95752" lon="2.26772">
        <ele>288.05</ele>
        <time>2020-06-30T14:12:00Z</time>
      </trkpt>
      <trkpt lat="43.9576" lon="2.26764">
        <ele>289.01</ele>
        <time>2020-06-30T14:12:09Z</time>
      </trkpt>
      <trkpt lat="43.9577" lon="2.26753">
        <ele>288.53</ele>
        <time>2020-06-30T14:12:18Z</time>
      </trkpt>
      <trkpt lat="43.9578" lon="2.26742">
        <ele>289.97</ele>
        <time>2020-06-30T14:12:26Z</time>
      </trkpt>
      <trkpt lat="43.95787" lon="2.26734">
        <ele>291.42</ele>
        <time>2020-06-30T14:12:32Z</time>
      </trkpt>
      <trkpt lat="43.95798" lon="2.26722">
        <ele>293.82</ele>
        <time>2020-06-30T14:12:41Z</time>
      </trkpt>
      <trkpt lat="43.95802" lon="2.26712">
        <ele>296.22</ele>
        <time>2020-06-30T14:12:46Z</time>
      </trkpt>
      <trkpt lat="43.95812" lon="2.26692">
        <ele>303.43</ele>
        <time>2020-06-30T14:12:57Z</time>
      </trkpt>
      <trkpt lat="43.95816" lon="2.26677">
        <ele>310.16</ele>
        <time>2020-06-30T14:13:07Z</time>
      </trkpt>
      <trkpt lat="43.95819" lon="2.26666">
        <ele>312.09</ele>
        <time>2020-06-30T14:13:16Z</time>
      </trkpt>
      <trkpt lat="43.95821" lon="2.26656">
        <ele>313.05</ele>
        <time>2020-06-30T14:13:26Z</time>
      </trkpt>
      <trkpt lat="43.95825" lon="2.26645">
        <ele>314.97</ele>
        <time>2020-06-30T14:13:34Z</time>
      </trkpt>
      <trkpt lat="43.95831" lon="2.26629">
        <ele>317.37</ele>
        <time>2020-06-30T14:13:45Z</time>
      </trkpt>
      <trkpt lat="43.95838" lon="2.26614">
        <ele>317.85</ele>
        <time>2020-06-30T14:13:55Z</time>
      </trkpt>
      <trkpt lat="43.95839" lon="2.26612">
        <ele>317.85</ele>
        <time>2020-06-30T14:14:02Z</time>
      </trkpt>
      <trkpt lat="43.9584" lon="2.26608">
        <ele>319.3</ele>
        <time>2020-06-30T14:14:13Z</time>
      </trkpt>
      <trkpt lat="43.95846" lon="2.26595">
        <ele>319.78</ele>
        <time>2020-06-30T14:14:22Z</time>
      </trkpt>
      <trkpt lat="43.95848" lon="2.26592">
        <ele>320.26</ele>
        <time>2020-06-30T14:14:30Z</time>
      </trkpt>
      <trkpt lat="43.9585" lon="2.26587">
        <ele>320.74</ele>
        <time>2020-06-30T14:14:47Z</time>
      </trkpt>
      <trkpt lat="43.95852" lon="2.26582">
        <ele>321.22</ele>
        <time>2020-06-30T14:14:51Z</time>
      </trkpt>
      <trkpt lat="43.9586" lon="2.26566">
        <ele>320.74</ele>
        <time>2020-06-30T14:15:02Z</time>
      </trkpt>
      <trkpt lat="43.95865" lon="2.26553">
        <ele>321.7</ele>
        <time>2020-06-30T14:15:10Z</time>
      </trkpt>
      <trkpt lat="43.9587" lon="2.2654">
        <ele>321.7</ele>
        <time>2020-06-30T14:15:19Z</time>
      </trkpt>
      <trkpt lat="43.95875" lon="2.26524">
        <ele>322.18</ele>
        <time>2020-06-30T14:15:29Z</time>
      </trkpt>
      <trkpt lat="43.9588" lon="2.26507">
        <ele>323.62</ele>
        <time>2020-06-30T14:15:39Z</time>
      </trkpt>
      <trkpt lat="43.95887" lon="2.26483">
        <ele>324.58</ele>
        <time>2020-06-30T14:15:51Z</time>
      </trkpt>
      <trkpt lat="43.95885" lon="2.26466">
        <ele>324.1</ele>
        <time>2020-06-30T14:16:01Z</time>
      </trkpt>
      <trkpt lat="43.95887" lon="2.26449">
        <ele>324.1</ele>
        <time>2020-06-30T14:16:10Z</time>
      </trkpt>
      <trkpt lat="43.95893" lon="2.26429">
        <ele>324.1</ele>
        <time>2020-06-30T14:16:21Z</time>
      </trkpt>
      <trkpt lat="43.95904" lon="2.26408">
        <ele>325.06</ele>
        <time>2020-06-30T14:16:34Z</time>
      </trkpt>
      <trkpt lat="43.95913" lon="2.2639">
        <ele>325.54</ele>
        <time>2020-06-30T14:16:45Z</time>
      </trkpt>
      <trkpt lat="43.95919" lon="2.26381">
        <ele>325.06</ele>
        <time>2020-06-30T14:16:55Z</time>
      </trkpt>
      <trkpt lat="43.95924" lon="2.26374">
        <ele>325.54</ele>
        <time>2020-06-30T14:17:01Z</time>
      </trkpt>
      <trkpt lat="43.95933" lon="2.26356">
        <ele>326.5</ele>
        <time>2020-06-30T14:17:12Z</time>
      </trkpt>
      <trkpt lat="43.9593" lon="2.2634">
        <ele>328.43</ele>
        <time>2020-06-30T14:17:21Z</time>
      </trkpt>
      <trkpt lat="43.95929" lon="2.26334">
        <ele>328.91</ele>
        <time>2020-06-30T14:17:25Z</time>
      </trkpt>
      <trkpt lat="43.95929" lon="2.26331">
        <ele>329.39</ele>
        <time>2020-06-30T14:17:27Z</time>
      </trkpt>
      <trkpt lat="43.95936" lon="2.26314">
        <ele>330.83</ele>
        <time>2020-06-30T14:17:38Z</time>
      </trkpt>
      <trkpt lat="43.9594" lon="2.26299">
        <ele>331.31</ele>
        <time>2020-06-30T14:17:47Z</time>
      </trkpt>
      <trkpt lat="43.95951" lon="2.26288">
        <ele>330.83</ele>
        <time>2020-06-30T14:17:57Z</time>
      </trkpt>
      <trkpt lat="43.95963" lon="2.2628">
        <ele>329.87</ele>
        <time>2020-06-30T14:18:08Z</time>
      </trkpt>
      <trkpt lat="43.95976" lon="2.26274">
        <ele>330.35</ele>
        <time>2020-06-30T14:18:19Z</time>
      </trkpt>
      <trkpt lat="43.9599" lon="2.26266">
        <ele>331.79</ele>
        <time>2020-06-30T14:18:30Z</time>
      </trkpt>
      <trkpt lat="43.96002" lon="2.2626">
        <ele>330.35</ele>
        <time>2020-06-30T14:18:41Z</time>
      </trkpt>
      <trkpt lat="43.96017" lon="2.26253">
        <ele>330.35</ele>
        <time>2020-06-30T14:18:52Z</time>
      </trkpt>
      <trkpt lat="43.96031" lon="2.26248">
        <ele>329.87</ele>
        <time>2020-06-30T14:19:01Z</time>
      </trkpt>
      <trkpt lat="43.96048" lon="2.26243">
        <ele>329.39</ele>
        <time>2020-06-30T14:19:12Z</time>
      </trkpt>
      <trkpt lat="43.96066" lon="2.26241">
        <ele>329.39</ele>
        <time>2020-06-30T14:19:23Z</time>
      </trkpt>
      <trkpt lat="43.96079" lon="2.2624">
        <ele>330.35</ele>
        <time>2020-06-30T14:19:32Z</time>
      </trkpt>
      <trkpt lat="43.96094" lon="2.26237">
        <ele>330.35</ele>
        <time>2020-06-30T14:19:42Z</time>
      </trkpt>
      <trkpt lat="43.96106" lon="2.26234">
        <ele>329.87</ele>
        <time>2020-06-30T14:19:51Z</time>
      </trkpt>
      <trkpt lat="43.9612" lon="2.26231">
        <ele>329.39</ele>
        <time>2020-06-30T14:20:00Z</time>
      </trkpt>
      <trkpt lat="43.96135" lon="2.26229">
        <ele>330.83</ele>
        <time>2020-06-30T14:20:10Z</time>
      </trkpt>
      <trkpt lat="43.96152" lon="2.26224">
        <ele>330.83</ele>
        <time>2020-06-30T14:20:21Z</time>
      </trkpt>
      <trkpt lat="43.96168" lon="2.2622">
        <ele>331.79</ele>
        <time>2020-06-30T14:20:32Z</time>
      </trkpt>
      <trkpt lat="43.96176" lon="2.26212">
        <ele>331.79</ele>
        <time>2020-06-30T14:20:39Z</time>
      </trkpt>
      <trkpt lat="43.96175" lon="2.26201">
        <ele>331.31</ele>
        <time>2020-06-30T14:20:48Z</time>
      </trkpt>
      <trkpt lat="43.96171" lon="2.26181">
        <ele>326.99</ele>
        <time>2020-06-30T14:21:00Z</time>
      </trkpt>
      <trkpt lat="43.96169" lon="2.26169">
        <ele>324.1</ele>
        <time>2020-06-30T14:21:09Z</time>
      </trkpt>
      <trkpt lat="43.96167" lon="2.26157">
        <ele>322.66</ele>
        <time>2020-06-30T14:21:16Z</time>
      </trkpt>
      <trkpt lat="43.96163" lon="2.26141">
        <ele>321.22</ele>
        <time>2020-06-30T14:21:26Z</time>
      </trkpt>
      <trkpt lat="43.96161" lon="2.26127">
        <ele>318.33</ele>
        <time>2020-06-30T14:21:34Z</time>
      </trkpt>
      <trkpt lat="43.9616" lon="2.26104">
        <ele>317.37</ele>
        <time>2020-06-30T14:21:44Z</time>
      </trkpt>
      <trkpt lat="43.9616" lon="2.26076">
        <ele>317.85</ele>
        <time>2020-06-30T14:21:56Z</time>
      </trkpt>
      <trkpt lat="43.96162" lon="2.26066">
        <ele>321.22</ele>
        <time>2020-06-30T14:22:04Z</time>
      </trkpt>
      <trkpt lat="43.96176" lon="2.26058">
        <ele>322.66</ele>
        <time>2020-06-30T14:22:15Z</time>
      </trkpt>
      <trkpt lat="43.96177" lon="2.26057">
        <ele>323.14</ele>
        <time>2020-06-30T14:22:16Z</time>
      </trkpt>
      <trkpt lat="43.96186" lon="2.26043">
        <ele>326.99</ele>
        <time>2020-06-30T14:22:26Z</time>
      </trkpt>
      <trkpt lat="43.96193" lon="2.26041">
        <ele>326.99</ele>
        <time>2020-06-30T14:22:35Z</time>
      </trkpt>
      <trkpt lat="43.96194" lon="2.26042">
        <ele>326.99</ele>
        <time>2020-06-30T14:22:36Z</time>
      </trkpt>
      <trkpt lat="43.96201" lon="2.26047">
        <ele>326.99</ele>
        <time>2020-06-30T14:22:43Z</time>
      </trkpt>
      <trkpt lat="43.96208" lon="2.26043">
        <ele>326.5</ele>
        <time>2020-06-30T14:22:47Z</time>
      </trkpt>
      <trkpt lat="43.96219" lon="2.26046">
        <ele>324.58</ele>
        <time>2020-06-30T14:22:56Z</time>
      </trkpt>
      <trkpt lat="43.96227" lon="2.26046">
        <ele>324.1</ele>
        <time>2020-06-30T14:23:03Z</time>
      </trkpt>
      <trkpt lat="43.96237" lon="2.26048">
        <ele>325.54</ele>
        <time>2020-06-30T14:23:10Z</time>
      </trkpt>
      <trkpt lat="43.96248" lon="2.2605">
        <ele>325.54</ele>
        <time>2020-06-30T14:23:19Z</time>
      </trkpt>
      <trkpt lat="43.96252" lon="2.26052">
        <ele>326.5</ele>
        <time>2020-06-30T14:23:31Z</time>
      </trkpt>
      <trkpt lat="43.9625" lon="2.26051">
        <ele>327.47</ele>
        <time>2020-06-30T14:23:39Z</time>
      </trkpt>
      <trkpt lat="43.96249" lon="2.26049">
        <ele>331.31</ele>
        <time>2020-06-30T14:24:01Z</time>
      </trkpt>
      <trkpt lat="43.96254" lon="2.26049">
        <ele>331.79</ele>
        <time>2020-06-30T14:24:18Z</time>
      </trkpt>
      <trkpt lat="43.96263" lon="2.26051">
        <ele>330.83</ele>
        <time>2020-06-30T14:24:26Z</time>
      </trkpt>
      <trkpt lat="43.96272" lon="2.2605">
        <ele>329.87</ele>
        <time>2020-06-30T14:24:34Z</time>
      </trkpt>
      <trkpt lat="43.96273" lon="2.26049">
        <ele>329.39</ele>
        <time>2020-06-30T14:24:35Z</time>
      </trkpt>
      <trkpt lat="43.9628" lon="2.26042">
        <ele>329.39</ele>
        <time>2020-06-30T14:24:41Z</time>
      </trkpt>
      <trkpt lat="43.96291" lon="2.26032">
        <ele>327.47</ele>
        <time>2020-06-30T14:24:51Z</time>
      </trkpt>
      <trkpt lat="43.96302" lon="2.26031">
        <ele>326.5</ele>
        <time>2020-06-30T14:25:00Z</time>
      </trkpt>
      <trkpt lat="43.96318" lon="2.26037">
        <ele>326.5</ele>
        <time>2020-06-30T14:25:09Z</time>
      </trkpt>
      <trkpt lat="43.96332" lon="2.2604">
        <ele>326.5</ele>
        <time>2020-06-30T14:25:18Z</time>
      </trkpt>
      <trkpt lat="43.96351" lon="2.26046">
        <ele>325.54</ele>
        <time>2020-06-30T14:25:30Z</time>
      </trkpt>
      <trkpt lat="43.96364" lon="2.2605">
        <ele>325.06</ele>
        <time>2020-06-30T14:25:39Z</time>
      </trkpt>
      <trkpt lat="43.96381" lon="2.26048">
        <ele>325.06</ele>
        <time>2020-06-30T14:25:51Z</time>
      </trkpt>
      <trkpt lat="43.96393" lon="2.2604">
        <ele>325.06</ele>
        <time>2020-06-30T14:26:00Z</time>
      </trkpt>
      <trkpt lat="43.96404" lon="2.26028">
        <ele>324.58</ele>
        <time>2020-06-30T14:26:11Z</time>
      </trkpt>
      <trkpt lat="43.9641" lon="2.26022">
        <ele>324.1</ele>
        <time>2020-06-30T14:26:16Z</time>
      </trkpt>
      <trkpt lat="43.96426" lon="2.26008">
        <ele>322.18</ele>
        <time>2020-06-30T14:26:29Z</time>
      </trkpt>
      <trkpt lat="43.96443" lon="2.25995">
        <ele>320.74</ele>
        <time>2020-06-30T14:26:42Z</time>
      </trkpt>
      <trkpt lat="43.96457" lon="2.25985">
        <ele>318.81</ele>
        <time>2020-06-30T14:26:52Z</time>
      </trkpt>
      <trkpt lat="43.96471" lon="2.25973">
        <ele>317.85</ele>
        <time>2020-06-30T14:27:03Z</time>
      </trkpt>
      <trkpt lat="43.96491" lon="2.25958">
        <ele>317.37</ele>
        <time>2020-06-30T14:27:18Z</time>
      </trkpt>
      <trkpt lat="43.96508" lon="2.25943">
        <ele>316.89</ele>
        <time>2020-06-30T14:27:31Z</time>
      </trkpt>
      <trkpt lat="43.96524" lon="2.25928">
        <ele>315.93</ele>
        <time>2020-06-30T14:27:44Z</time>
      </trkpt>
      <trkpt lat="43.96538" lon="2.25917">
        <ele>315.93</ele>
        <time>2020-06-30T14:27:55Z</time>
      </trkpt>
      <trkpt lat="43.96554" lon="2.25913">
        <ele>316.41</ele>
        <time>2020-06-30T14:28:06Z</time>
      </trkpt>
      <trkpt lat="43.96577" lon="2.25921">
        <ele>314.97</ele>
        <time>2020-06-30T14:28:21Z</time>
      </trkpt>
      <trkpt lat="43.96591" lon="2.25926">
        <ele>314.49</ele>
        <time>2020-06-30T14:28:31Z</time>
      </trkpt>
      <trkpt lat="43.96605" lon="2.25932">
        <ele>314.01</ele>
        <time>2020-06-30T14:28:41Z</time>
      </trkpt>
      <trkpt lat="43.96619" lon="2.25937">
        <ele>311.6</ele>
        <time>2020-06-30T14:28:51Z</time>
      </trkpt>
      <trkpt lat="43.96622" lon="2.25938">
        <ele>310.64</ele>
        <time>2020-06-30T14:28:57Z</time>
      </trkpt>
      <trkpt lat="43.96628" lon="2.2594">
        <ele>310.64</ele>
        <time>2020-06-30T14:29:03Z</time>
      </trkpt>
      <trkpt lat="43.96642" lon="2.25944">
        <ele>309.2</ele>
        <time>2020-06-30T14:29:13Z</time>
      </trkpt>
      <trkpt lat="43.96654" lon="2.25946">
        <ele>308.72</ele>
        <time>2020-06-30T14:29:22Z</time>
      </trkpt>
      <trkpt lat="43.9667" lon="2.25943">
        <ele>308.24</ele>
        <time>2020-06-30T14:29:32Z</time>
      </trkpt>
      <trkpt lat="43.96684" lon="2.25939">
        <ele>307.76</ele>
        <time>2020-06-30T14:29:41Z</time>
      </trkpt>
      <trkpt lat="43.96701" lon="2.2594">
        <ele>308.24</ele>
        <time>2020-06-30T14:29:51Z</time>
      </trkpt>
      <trkpt lat="43.96712" lon="2.25939">
        <ele>307.28</ele>
        <time>2020-06-30T14:29:59Z</time>
      </trkpt>
      <trkpt lat="43.96732" lon="2.25935">
        <ele>308.72</ele>
        <time>2020-06-30T14:30:12Z</time>
      </trkpt>
      <trkpt lat="43.96749" lon="2.25933">
        <ele>310.64</ele>
        <time>2020-06-30T14:30:23Z</time>
      </trkpt>
      <trkpt lat="43.96764" lon="2.25928">
        <ele>312.09</ele>
        <time>2020-06-30T14:30:34Z</time>
      </trkpt>
      <trkpt lat="43.96783" lon="2.25923">
        <ele>314.01</ele>
        <time>2020-06-30T14:30:47Z</time>
      </trkpt>
      <trkpt lat="43.96805" lon="2.25919">
        <ele>315.45</ele>
        <time>2020-06-30T14:31:02Z</time>
      </trkpt>
      <trkpt lat="43.96823" lon="2.25918">
        <ele>315.93</ele>
        <time>2020-06-30T14:31:14Z</time>
      </trkpt>
      <trkpt lat="43.9684" lon="2.25919">
        <ele>316.89</ele>
        <time>2020-06-30T14:31:26Z</time>
      </trkpt>
      <trkpt lat="43.96857" lon="2.25918">
        <ele>317.85</ele>
        <time>2020-06-30T14:31:38Z</time>
      </trkpt>
      <trkpt lat="43.96874" lon="2.25918">
        <ele>317.85</ele>
        <time>2020-06-30T14:31:50Z</time>
      </trkpt>
      <trkpt lat="43.96888" lon="2.2592">
        <ele>318.81</ele>
        <time>2020-06-30T14:32:00Z</time>
      </trkpt>
      <trkpt lat="43.96901" lon="2.25925">
        <ele>318.33</ele>
        <time>2020-06-30T14:32:10Z</time>
      </trkpt>
      <trkpt lat="43.96901" lon="2.2593">
        <ele>318.81</ele>
        <time>2020-06-30T14:32:13Z</time>
      </trkpt>
      <trkpt lat="43.96896" lon="2.25946">
        <ele>318.81</ele>
        <time>2020-06-30T14:32:23Z</time>
      </trkpt>
      <trkpt lat="43.96891" lon="2.2596">
        <ele>318.33</ele>
        <time>2020-06-30T14:32:31Z</time>
      </trkpt>
      <trkpt lat="43.96884" lon="2.25975">
        <ele>317.85</ele>
        <time>2020-06-30T14:32:40Z</time>
      </trkpt>
      <trkpt lat="43.96883" lon="2.2598">
        <ele>317.85</ele>
        <time>2020-06-30T14:32:48Z</time>
      </trkpt>
      <trkpt lat="43.96881" lon="2.25983">
        <ele>317.37</ele>
        <time>2020-06-30T14:33:16Z</time>
      </trkpt>
      <trkpt lat="43.96879" lon="2.25991">
        <ele>316.41</ele>
        <time>2020-06-30T14:33:25Z</time>
      </trkpt>
      <trkpt lat="43.96877" lon="2.25998">
        <ele>316.41</ele>
        <time>2020-06-30T14:33:29Z</time>
      </trkpt>
      <trkpt lat="43.96875" lon="2.26004">
        <ele>317.37</ele>
        <time>2020-06-30T14:33:33Z</time>
      </trkpt>
      <trkpt lat="43.96872" lon="2.26015">
        <ele>317.85</ele>
        <time>2020-06-30T14:33:39Z</time>
      </trkpt>
      <trkpt lat="43.96871" lon="2.26027">
        <ele>317.37</ele>
        <time>2020-06-30T14:33:48Z</time>
      </trkpt>
      <trkpt lat="43.9687" lon="2.26036">
        <ele>318.33</ele>
        <time>2020-06-30T14:34:06Z</time>
      </trkpt>
      <trkpt lat="43.96869" lon="2.26053">
        <ele>317.85</ele>
        <time>2020-06-30T14:34:15Z</time>
      </trkpt>
      <trkpt lat="43.96867" lon="2.26067">
        <ele>317.85</ele>
        <time>2020-06-30T14:34:23Z</time>
      </trkpt>
      <trkpt lat="43.96866" lon="2.26085">
        <ele>317.37</ele>
        <time>2020-06-30T14:34:33Z</time>
      </trkpt>
      <trkpt lat="43.96867" lon="2.26103">
        <ele>316.41</ele>
        <time>2020-06-30T14:34:42Z</time>
      </trkpt>
      <trkpt lat="43.96867" lon="2.26121">
        <ele>316.41</ele>
        <time>2020-06-30T14:34:51Z</time>
      </trkpt>
      <trkpt lat="43.9687" lon="2.26143">
        <ele>314.97</ele>
        <time>2020-06-30T14:35:02Z</time>
      </trkpt>
      <trkpt lat="43.96871" lon="2.26164">
        <ele>314.97</ele>
        <time>2020-06-30T14:35:12Z</time>
      </trkpt>
      <trkpt lat="43.96873" lon="2.26182">
        <ele>315.93</ele>
        <time>2020-06-30T14:35:22Z</time>
      </trkpt>
      <trkpt lat="43.96873" lon="2.26201">
        <ele>316.89</ele>
        <time>2020-06-30T14:35:32Z</time>
      </trkpt>
      <trkpt lat="43.96873" lon="2.26218">
        <ele>317.37</ele>
        <time>2020-06-30T14:35:42Z</time>
      </trkpt>
      <trkpt lat="43.96871" lon="2.26239">
        <ele>318.33</ele>
        <time>2020-06-30T14:35:53Z</time>
      </trkpt>
      <trkpt lat="43.96868" lon="2.26257">
        <ele>318.81</ele>
        <time>2020-06-30T14:36:01Z</time>
      </trkpt>
      <trkpt lat="43.96866" lon="2.26278">
        <ele>316.41</ele>
        <time>2020-06-30T14:36:11Z</time>
      </trkpt>
      <trkpt lat="43.96864" lon="2.26299">
        <ele>317.37</ele>
        <time>2020-06-30T14:36:21Z</time>
      </trkpt>
      <trkpt lat="43.96862" lon="2.26317">
        <ele>318.81</ele>
        <time>2020-06-30T14:36:31Z</time>
      </trkpt>
      <trkpt lat="43.9686" lon="2.2634">
        <ele>320.26</ele>
        <time>2020-06-30T14:36:42Z</time>
      </trkpt>
      <trkpt lat="43.96856" lon="2.26361">
        <ele>319.78</ele>
        <time>2020-06-30T14:36:52Z</time>
      </trkpt>
      <trkpt lat="43.96854" lon="2.26375">
        <ele>318.81</ele>
        <time>2020-06-30T14:37:00Z</time>
      </trkpt>
      <trkpt lat="43.96853" lon="2.26389">
        <ele>319.78</ele>
        <time>2020-06-30T14:37:07Z</time>
      </trkpt>
      <trkpt lat="43.96854" lon="2.26406">
        <ele>319.78</ele>
        <time>2020-06-30T14:37:16Z</time>
      </trkpt>
      <trkpt lat="43.96857" lon="2.26416">
        <ele>319.78</ele>
        <time>2020-06-30T14:37:22Z</time>
      </trkpt>
      <trkpt lat="43.96867" lon="2.26426">
        <ele>319.78</ele>
        <time>2020-06-30T14:37:32Z</time>
      </trkpt>
      <trkpt lat="43.9688" lon="2.26437">
        <ele>320.74</ele>
        <time>2020-06-30T14:37:41Z</time>
      </trkpt>
      <trkpt lat="43.96894" lon="2.26454">
        <ele>323.14</ele>
        <time>2020-06-30T14:37:51Z</time>
      </trkpt>
      <trkpt lat="43.96898" lon="2.26461">
        <ele>323.62</ele>
        <time>2020-06-30T14:37:55Z</time>
      </trkpt>
      <trkpt lat="43.96903" lon="2.2648">
        <ele>324.1</ele>
        <time>2020-06-30T14:38:05Z</time>
      </trkpt>
      <trkpt lat="43.96907" lon="2.265">
        <ele>324.58</ele>
        <time>2020-06-30T14:38:14Z</time>
      </trkpt>
      <trkpt lat="43.96912" lon="2.26519">
        <ele>325.54</ele>
        <time>2020-06-30T14:38:24Z</time>
      </trkpt>
      <trkpt lat="43.96912" lon="2.26538">
        <ele>326.02</ele>
        <time>2020-06-30T14:38:34Z</time>
      </trkpt>
      <trkpt lat="43.96909" lon="2.26552">
        <ele>326.5</ele>
        <time>2020-06-30T14:38:42Z</time>
      </trkpt>
      <trkpt lat="43.96904" lon="2.26571">
        <ele>326.02</ele>
        <time>2020-06-30T14:38:53Z</time>
      </trkpt>
      <trkpt lat="43.969" lon="2.26588">
        <ele>326.5</ele>
        <time>2020-06-30T14:39:02Z</time>
      </trkpt>
      <trkpt lat="43.96898" lon="2.26605">
        <ele>326.99</ele>
        <time>2020-06-30T14:39:12Z</time>
      </trkpt>
      <trkpt lat="43.96899" lon="2.2662">
        <ele>326.99</ele>
        <time>2020-06-30T14:39:20Z</time>
      </trkpt>
      <trkpt lat="43.969" lon="2.26634">
        <ele>328.43</ele>
        <time>2020-06-30T14:39:27Z</time>
      </trkpt>
      <trkpt lat="43.96902" lon="2.26649">
        <ele>329.39</ele>
        <time>2020-06-30T14:39:36Z</time>
      </trkpt>
      <trkpt lat="43.96905" lon="2.26665">
        <ele>328.91</ele>
        <time>2020-06-30T14:39:44Z</time>
      </trkpt>
      <trkpt lat="43.96908" lon="2.26685">
        <ele>329.39</ele>
        <time>2020-06-30T14:39:54Z</time>
      </trkpt>
      <trkpt lat="43.96912" lon="2.26701">
        <ele>331.79</ele>
        <time>2020-06-30T14:40:02Z</time>
      </trkpt>
      <trkpt lat="43.96917" lon="2.2672">
        <ele>332.75</ele>
        <time>2020-06-30T14:40:12Z</time>
      </trkpt>
      <trkpt lat="43.96918" lon="2.26726">
        <ele>334.2</ele>
        <time>2020-06-30T14:40:19Z</time>
      </trkpt>
      <trkpt lat="43.96918" lon="2.26728">
        <ele>336.12</ele>
        <time>2020-06-30T14:40:31Z</time>
      </trkpt>
      <trkpt lat="43.96918" lon="2.26732">
        <ele>336.12</ele>
        <time>2020-06-30T14:40:40Z</time>
      </trkpt>
      <trkpt lat="43.96919" lon="2.26734">
        <ele>335.64</ele>
        <time>2020-06-30T14:40:44Z</time>
      </trkpt>
      <trkpt lat="43.96929" lon="2.26738">
        <ele>335.64</ele>
        <time>2020-06-30T14:40:52Z</time>
      </trkpt>
      <trkpt lat="43.9693" lon="2.26738">
        <ele>336.12</ele>
        <time>2020-06-30T14:40:53Z</time>
      </trkpt>
      <trkpt lat="43.96946" lon="2.2674">
        <ele>336.12</ele>
        <time>2020-06-30T14:41:05Z</time>
      </trkpt>
      <trkpt lat="43.96963" lon="2.26741">
        <ele>337.56</ele>
        <time>2020-06-30T14:41:16Z</time>
      </trkpt>
      <trkpt lat="43.96975" lon="2.2674">
        <ele>337.56</ele>
        <time>2020-06-30T14:41:24Z</time>
      </trkpt>
      <trkpt lat="43.96987" lon="2.26736">
        <ele>337.08</ele>
        <time>2020-06-30T14:41:33Z</time>
      </trkpt>
      <trkpt lat="43.97005" lon="2.26733">
        <ele>337.08</ele>
        <time>2020-06-30T14:41:45Z</time>
      </trkpt>
      <trkpt lat="43.97014" lon="2.2673">
        <ele>336.6</ele>
        <time>2020-06-30T14:41:54Z</time>
      </trkpt>
      <trkpt lat="43.97013" lon="2.26729">
        <ele>336.6</ele>
        <time>2020-06-30T14:42:08Z</time>
      </trkpt>
      <trkpt lat="43.97013" lon="2.2673">
        <ele>336.6</ele>
        <time>2020-06-30T14:42:27Z</time>
      </trkpt>
      <trkpt lat="43.97013" lon="2.26728">
        <ele>335.64</ele>
        <time>2020-06-30T14:42:50Z</time>
      </trkpt>
      <trkpt lat="43.97013" lon="2.26728">
        <ele>335.16</ele>
        <time>2020-06-30T14:43:15Z</time>
      </trkpt>
      <trkpt lat="43.97014" lon="2.2673">
        <ele>335.16</ele>
        <time>2020-06-30T14:43:38Z</time>
      </trkpt>
      <trkpt lat="43.97015" lon="2.26731">
        <ele>335.64</ele>
        <time>2020-06-30T14:44:00Z</time>
      </trkpt>
      <trkpt lat="43.97015" lon="2.26729">
        <ele>336.12</ele>
        <time>2020-06-30T14:44:20Z</time>
      </trkpt>
      <trkpt lat="43.97015" lon="2.26728">
        <ele>335.16</ele>
        <time>2020-06-30T14:44:45Z</time>
      </trkpt>
      <trkpt lat="43.97016" lon="2.26728">
        <ele>335.16</ele>
        <time>2020-06-30T14:45:05Z</time>
      </trkpt>
      <trkpt lat="43.97015" lon="2.26729">
        <ele>333.71</ele>
        <time>2020-06-30T14:45:31Z</time>
      </trkpt>
      <trkpt lat="43.97013" lon="2.26728">
        <ele>334.68</ele>
        <time>2020-06-30T14:45:52Z</time>
      </trkpt>
      <trkpt lat="43.97015" lon="2.26729">
        <ele>335.16</ele>
        <time>2020-06-30T14:46:14Z</time>
      </trkpt>
      <trkpt lat="43.97015" lon="2.2673">
        <ele>333.71</ele>
        <time>2020-06-30T14:46:36Z</time>
      </trkpt>
      <trkpt lat="43.97015" lon="2.26732">
        <ele>333.23</ele>
        <time>2020-06-30T14:46:55Z</time>
      </trkpt>
      <trkpt lat="43.97016" lon="2.26732">
        <ele>333.71</ele>
        <time>2020-06-30T14:47:09Z</time>
      </trkpt>
      <trkpt lat="43.97016" lon="2.26732">
        <ele>331.79</ele>
        <time>2020-06-30T14:47:23Z</time>
      </trkpt>
      <trkpt lat="43.97017" lon="2.26732">
        <ele>331.79</ele>
        <time>2020-06-30T14:47:35Z</time>
      </trkpt>
      <trkpt lat="43.97016" lon="2.26732">
        <ele>331.79</ele>
        <time>2020-06-30T14:47:49Z</time>
      </trkpt>
      <trkpt lat="43.97016" lon="2.26731">
        <ele>332.75</ele>
        <time>2020-06-30T14:48:10Z</time>
      </trkpt>
      <trkpt lat="43.97016" lon="2.26732">
        <ele>332.75</ele>
        <time>2020-06-30T14:48:25Z</time>
      </trkpt>
      <trkpt lat="43.97016" lon="2.26732">
        <ele>333.23</ele>
        <time>2020-06-30T14:48:44Z</time>
      </trkpt>
      <trkpt lat="43.97016" lon="2.26732">
        <ele>332.27</ele>
        <time>2020-06-30T14:48:58Z</time>
      </trkpt>
      <trkpt lat="43.97024" lon="2.26727">
        <ele>332.27</ele>
        <time>2020-06-30T14:49:05Z</time>
      </trkpt>
      <trkpt lat="43.97037" lon="2.26719">
        <ele>332.27</ele>
        <time>2020-06-30T14:49:15Z</time>
      </trkpt>
      <trkpt lat="43.97046" lon="2.26713">
        <ele>332.75</ele>
        <time>2020-06-30T14:49:22Z</time>
      </trkpt>
      <trkpt lat="43.97056" lon="2.26702">
        <ele>334.2</ele>
        <time>2020-06-30T14:49:31Z</time>
      </trkpt>
      <trkpt lat="43.97063" lon="2.26687">
        <ele>334.68</ele>
        <time>2020-06-30T14:49:40Z</time>
      </trkpt>
      <trkpt lat="43.9707" lon="2.26667">
        <ele>336.12</ele>
        <time>2020-06-30T14:49:52Z</time>
      </trkpt>
      <trkpt lat="43.97071" lon="2.26664">
        <ele>336.6</ele>
        <time>2020-06-30T14:50:00Z</time>
      </trkpt>
      <trkpt lat="43.9707" lon="2.26662">
        <ele>335.64</ele>
        <time>2020-06-30T14:50:16Z</time>
      </trkpt>
      <trkpt lat="43.97069" lon="2.26662">
        <ele>334.68</ele>
        <time>2020-06-30T14:50:26Z</time>
      </trkpt>
      <trkpt lat="43.97073" lon="2.26658">
        <ele>335.16</ele>
        <time>2020-06-30T14:50:30Z</time>
      </trkpt>
      <trkpt lat="43.97082" lon="2.26643">
        <ele>335.64</ele>
        <time>2020-06-30T14:50:40Z</time>
      </trkpt>
      <trkpt lat="43.97092" lon="2.26626">
        <ele>335.64</ele>
        <time>2020-06-30T14:50:50Z</time>
      </trkpt>
      <trkpt lat="43.97101" lon="2.26608">
        <ele>335.64</ele>
        <time>2020-06-30T14:51:01Z</time>
      </trkpt>
      <trkpt lat="43.9711" lon="2.26591">
        <ele>336.6</ele>
        <time>2020-06-30T14:51:11Z</time>
      </trkpt>
      <trkpt lat="43.97123" lon="2.26569">
        <ele>337.08</ele>
        <time>2020-06-30T14:51:24Z</time>
      </trkpt>
      <trkpt lat="43.97132" lon="2.26551">
        <ele>338.52</ele>
        <time>2020-06-30T14:51:35Z</time>
      </trkpt>
      <trkpt lat="43.97145" lon="2.26531">
        <ele>340.44</ele>
        <time>2020-06-30T14:51:47Z</time>
      </trkpt>
      <trkpt lat="43.97158" lon="2.26511">
        <ele>340.92</ele>
        <time>2020-06-30T14:52:00Z</time>
      </trkpt>
      <trkpt lat="43.9717" lon="2.26492">
        <ele>342.37</ele>
        <time>2020-06-30T14:52:12Z</time>
      </trkpt>
      <trkpt lat="43.97182" lon="2.26472">
        <ele>342.37</ele>
        <time>2020-06-30T14:52:24Z</time>
      </trkpt>
      <trkpt lat="43.9719" lon="2.26457">
        <ele>340.44</ele>
        <time>2020-06-30T14:52:33Z</time>
      </trkpt>
      <trkpt lat="43.97199" lon="2.26441">
        <ele>340.44</ele>
        <time>2020-06-30T14:52:43Z</time>
      </trkpt>
      <trkpt lat="43.97208" lon="2.26414">
        <ele>339.48</ele>
        <time>2020-06-30T14:52:56Z</time>
      </trkpt>
      <trkpt lat="43.97214" lon="2.26389">
        <ele>338.52</ele>
        <time>2020-06-30T14:53:08Z</time>
      </trkpt>
      <trkpt lat="43.97221" lon="2.26364">
        <ele>338.04</ele>
        <time>2020-06-30T14:53:20Z</time>
      </trkpt>
      <trkpt lat="43.97229" lon="2.26346">
        <ele>336.6</ele>
        <time>2020-06-30T14:53:30Z</time>
      </trkpt>
      <trkpt lat="43.97234" lon="2.26339">
        <ele>335.64</ele>
        <time>2020-06-30T14:53:38Z</time>
      </trkpt>
      <trkpt lat="43.97237" lon="2.26343">
        <ele>335.64</ele>
        <time>2020-06-30T14:54:04Z</time>
      </trkpt>
      <trkpt lat="43.9724" lon="2.26343">
        <ele>334.68</ele>
        <time>2020-06-30T14:54:27Z</time>
      </trkpt>
      <trkpt lat="43.97241" lon="2.26343">
        <ele>335.64</ele>
        <time>2020-06-30T14:54:52Z</time>
      </trkpt>
      <trkpt lat="43.97241" lon="2.26341">
        <ele>335.64</ele>
        <time>2020-06-30T14:55:02Z</time>
      </trkpt>
      <trkpt lat="43.9724" lon="2.26343">
        <ele>338.04</ele>
        <time>2020-06-30T14:55:22Z</time>
      </trkpt>
      <trkpt lat="43.97239" lon="2.26342">
        <ele>338.04</ele>
        <time>2020-06-30T14:55:43Z</time>
      </trkpt>
      <trkpt lat="43.97241" lon="2.26343">
        <ele>336.12</ele>
        <time>2020-06-30T14:56:02Z</time>
      </trkpt>
      <trkpt lat="43.97242" lon="2.26341">
        <ele>335.16</ele>
        <time>2020-06-30T14:56:23Z</time>
      </trkpt>
      <trkpt lat="43.9724" lon="2.26341">
        <ele>336.6</ele>
        <time>2020-06-30T14:56:41Z</time>
      </trkpt>
      <trkpt lat="43.97242" lon="2.26344">
        <ele>338.52</ele>
        <time>2020-06-30T14:57:04Z</time>
      </trkpt>
      <trkpt lat="43.9724" lon="2.26345">
        <ele>339.96</ele>
        <time>2020-06-30T14:57:21Z</time>
      </trkpt>
      <trkpt lat="43.97241" lon="2.26336">
        <ele>338.52</ele>
        <time>2020-06-30T14:57:33Z</time>
      </trkpt>
      <trkpt lat="43.97247" lon="2.26324">
        <ele>337.08</ele>
        <time>2020-06-30T14:57:43Z</time>
      </trkpt>
      <trkpt lat="43.97256" lon="2.2632">
        <ele>334.2</ele>
        <time>2020-06-30T14:57:52Z</time>
      </trkpt>
      <trkpt lat="43.97268" lon="2.26318">
        <ele>330.35</ele>
        <time>2020-06-30T14:58:02Z</time>
      </trkpt>
      <trkpt lat="43.97278" lon="2.26319">
        <ele>328.91</ele>
        <time>2020-06-30T14:58:09Z</time>
      </trkpt>
      <trkpt lat="43.97288" lon="2.26319">
        <ele>328.91</ele>
        <time>2020-06-30T14:58:16Z</time>
      </trkpt>
      <trkpt lat="43.97303" lon="2.26321">
        <ele>327.95</ele>
        <time>2020-06-30T14:58:26Z</time>
      </trkpt>
      <trkpt lat="43.97314" lon="2.26323">
        <ele>326.99</ele>
        <time>2020-06-30T14:58:34Z</time>
      </trkpt>
      <trkpt lat="43.97326" lon="2.26322">
        <ele>325.54</ele>
        <time>2020-06-30T14:58:42Z</time>
      </trkpt>
      <trkpt lat="43.9734" lon="2.26322">
        <ele>326.02</ele>
        <time>2020-06-30T14:58:52Z</time>
      </trkpt>
      <trkpt lat="43.97353" lon="2.26322">
        <ele>326.02</ele>
        <time>2020-06-30T14:59:01Z</time>
      </trkpt>
      <trkpt lat="43.97357" lon="2.26323">
        <ele>326.5</ele>
        <time>2020-06-30T14:59:05Z</time>
      </trkpt>
      <trkpt lat="43.97366" lon="2.26316">
        <ele>327.47</ele>
        <time>2020-06-30T14:59:14Z</time>
      </trkpt>
      <trkpt lat="43.97368" lon="2.26315">
        <ele>327.47</ele>
        <time>2020-06-30T14:59:16Z</time>
      </trkpt>
      <trkpt lat="43.97381" lon="2.2631">
        <ele>327.95</ele>
        <time>2020-06-30T14:59:27Z</time>
      </trkpt>
      <trkpt lat="43.97394" lon="2.26305">
        <ele>329.39</ele>
        <time>2020-06-30T14:59:36Z</time>
      </trkpt>
      <trkpt lat="43.97402" lon="2.26303">
        <ele>329.39</ele>
        <time>2020-06-30T14:59:44Z</time>
      </trkpt>
      <trkpt lat="43.97417" lon="2.26298">
        <ele>329.39</ele>
        <time>2020-06-30T14:59:55Z</time>
      </trkpt>
      <trkpt lat="43.9743" lon="2.26293">
        <ele>330.35</ele>
        <time>2020-06-30T15:00:04Z</time>
      </trkpt>
      <trkpt lat="43.97438" lon="2.2629">
        <ele>330.35</ele>
        <time>2020-06-30T15:00:12Z</time>
      </trkpt>
      <trkpt lat="43.97452" lon="2.26285">
        <ele>329.39</ele>
        <time>2020-06-30T15:00:21Z</time>
      </trkpt>
      <trkpt lat="43.97465" lon="2.26281">
        <ele>331.31</ele>
        <time>2020-06-30T15:00:30Z</time>
      </trkpt>
      <trkpt lat="43.9748" lon="2.2628">
        <ele>334.2</ele>
        <time>2020-06-30T15:00:39Z</time>
      </trkpt>
      <trkpt lat="43.97494" lon="2.26283">
        <ele>335.64</ele>
        <time>2020-06-30T15:00:49Z</time>
      </trkpt>
      <trkpt lat="43.97506" lon="2.26287">
        <ele>334.68</ele>
        <time>2020-06-30T15:00:58Z</time>
      </trkpt>
      <trkpt lat="43.97509" lon="2.26288">
        <ele>334.68</ele>
        <time>2020-06-30T15:01:01Z</time>
      </trkpt>
      <trkpt lat="43.97511" lon="2.26283">
        <ele>334.2</ele>
        <time>2020-06-30T15:01:08Z</time>
      </trkpt>
      <trkpt lat="43.97511" lon="2.26284">
        <ele>334.2</ele>
        <time>2020-06-30T15:01:10Z</time>
      </trkpt>
      <trkpt lat="43.97518" lon="2.26291">
        <ele>333.23</ele>
        <time>2020-06-30T15:01:17Z</time>
      </trkpt>
      <trkpt lat="43.97524" lon="2.26299">
        <ele>332.27</ele>
        <time>2020-06-30T15:01:24Z</time>
      </trkpt>
      <trkpt lat="43.97527" lon="2.26314">
        <ele>333.23</ele>
        <time>2020-06-30T15:01:33Z</time>
      </trkpt>
      <trkpt lat="43.97531" lon="2.26332">
        <ele>335.16</ele>
        <time>2020-06-30T15:01:42Z</time>
      </trkpt>
      <trkpt lat="43.97533" lon="2.26346">
        <ele>336.6</ele>
        <time>2020-06-30T15:01:50Z</time>
      </trkpt>
      <trkpt lat="43.97536" lon="2.2636">
        <ele>337.56</ele>
        <time>2020-06-30T15:01:59Z</time>
      </trkpt>
      <trkpt lat="43.97536" lon="2.2638">
        <ele>337.56</ele>
        <time>2020-06-30T15:02:09Z</time>
      </trkpt>
      <trkpt lat="43.97535" lon="2.26398">
        <ele>335.64</ele>
        <time>2020-06-30T15:02:18Z</time>
      </trkpt>
      <trkpt lat="43.97535" lon="2.26424">
        <ele>335.64</ele>
        <time>2020-06-30T15:02:30Z</time>
      </trkpt>
      <trkpt lat="43.97536" lon="2.26443">
        <ele>337.08</ele>
        <time>2020-06-30T15:02:40Z</time>
      </trkpt>
      <trkpt lat="43.97541" lon="2.26459">
        <ele>338.04</ele>
        <time>2020-06-30T15:02:49Z</time>
      </trkpt>
      <trkpt lat="43.97549" lon="2.26473">
        <ele>339.48</ele>
        <time>2020-06-30T15:02:59Z</time>
      </trkpt>
      <trkpt lat="43.97551" lon="2.26476">
        <ele>339.48</ele>
        <time>2020-06-30T15:03:01Z</time>
      </trkpt>
      <trkpt lat="43.9756" lon="2.26488">
        <ele>338.04</ele>
        <time>2020-06-30T15:03:10Z</time>
      </trkpt>
      <trkpt lat="43.97569" lon="2.26504">
        <ele>338.52</ele>
        <time>2020-06-30T15:03:21Z</time>
      </trkpt>
      <trkpt lat="43.97576" lon="2.26518">
        <ele>339.48</ele>
        <time>2020-06-30T15:03:31Z</time>
      </trkpt>
      <trkpt lat="43.97584" lon="2.26531">
        <ele>340.44</ele>
        <time>2020-06-30T15:03:39Z</time>
      </trkpt>
      <trkpt lat="43.9759" lon="2.26547">
        <ele>344.29</ele>
        <time>2020-06-30T15:03:49Z</time>
      </trkpt>
      <trkpt lat="43.976" lon="2.26561">
        <ele>345.73</ele>
        <time>2020-06-30T15:03:59Z</time>
      </trkpt>
      <trkpt lat="43.97608" lon="2.26574">
        <ele>345.73</ele>
        <time>2020-06-30T15:04:08Z</time>
      </trkpt>
      <trkpt lat="43.97618" lon="2.26588">
        <ele>348.13</ele>
        <time>2020-06-30T15:04:17Z</time>
      </trkpt>
      <trkpt lat="43.97625" lon="2.26597">
        <ele>348.62</ele>
        <time>2020-06-30T15:04:24Z</time>
      </trkpt>
      <trkpt lat="43.97635" lon="2.26611">
        <ele>347.17</ele>
        <time>2020-06-30T15:04:35Z</time>
      </trkpt>
      <trkpt lat="43.97642" lon="2.26622">
        <ele>346.21</ele>
        <time>2020-06-30T15:04:42Z</time>
      </trkpt>
      <trkpt lat="43.97648" lon="2.26637">
        <ele>346.21</ele>
        <time>2020-06-30T15:04:50Z</time>
      </trkpt>
      <trkpt lat="43.97651" lon="2.26642">
        <ele>346.69</ele>
        <time>2020-06-30T15:04:53Z</time>
      </trkpt>
      <trkpt lat="43.97654" lon="2.26646">
        <ele>348.62</ele>
        <time>2020-06-30T15:05:01Z</time>
      </trkpt>
      <trkpt lat="43.97655" lon="2.26646">
        <ele>349.58</ele>
        <time>2020-06-30T15:05:14Z</time>
      </trkpt>
      <trkpt lat="43.97655" lon="2.26646">
        <ele>350.54</ele>
        <time>2020-06-30T15:05:25Z</time>
      </trkpt>
      <trkpt lat="43.97655" lon="2.26648">
        <ele>350.54</ele>
        <time>2020-06-30T15:05:42Z</time>
      </trkpt>
      <trkpt lat="43.97656" lon="2.2665">
        <ele>351.5</ele>
        <time>2020-06-30T15:05:54Z</time>
      </trkpt>
      <trkpt lat="43.97656" lon="2.26649">
        <ele>351.98</ele>
        <time>2020-06-30T15:06:06Z</time>
      </trkpt>
      <trkpt lat="43.97656" lon="2.2665">
        <ele>354.38</ele>
        <time>2020-06-30T15:06:26Z</time>
      </trkpt>
      <trkpt lat="43.97657" lon="2.2665">
        <ele>354.86</ele>
        <time>2020-06-30T15:06:46Z</time>
      </trkpt>
      <trkpt lat="43.97657" lon="2.2665">
        <ele>355.34</ele>
        <time>2020-06-30T15:06:49Z</time>
      </trkpt>
      <trkpt lat="43.9766" lon="2.26662">
        <ele>353.42</ele>
        <time>2020-06-30T15:06:58Z</time>
      </trkpt>
      <trkpt lat="43.9766" lon="2.26672">
        <ele>353.9</ele>
        <time>2020-06-30T15:07:05Z</time>
      </trkpt>
      <trkpt lat="43.97658" lon="2.26688">
        <ele>353.42</ele>
        <time>2020-06-30T15:07:14Z</time>
      </trkpt>
      <trkpt lat="43.97655" lon="2.26708">
        <ele>351.98</ele>
        <time>2020-06-30T15:07:24Z</time>
      </trkpt>
      <trkpt lat="43.97653" lon="2.26729">
        <ele>351.5</ele>
        <time>2020-06-30T15:07:34Z</time>
      </trkpt>
      <trkpt lat="43.97649" lon="2.26751">
        <ele>351.98</ele>
        <time>2020-06-30T15:07:45Z</time>
      </trkpt>
      <trkpt lat="43.97646" lon="2.2677">
        <ele>351.98</ele>
        <time>2020-06-30T15:07:56Z</time>
      </trkpt>
      <trkpt lat="43.97644" lon="2.26784">
        <ele>352.46</ele>
        <time>2020-06-30T15:08:05Z</time>
      </trkpt>
      <trkpt lat="43.97642" lon="2.2679">
        <ele>351.5</ele>
        <time>2020-06-30T15:08:16Z</time>
      </trkpt>
      <trkpt lat="43.9764" lon="2.26811">
        <ele>352.46</ele>
        <time>2020-06-30T15:08:25Z</time>
      </trkpt>
      <trkpt lat="43.97638" lon="2.26831">
        <ele>353.42</ele>
        <time>2020-06-30T15:08:35Z</time>
      </trkpt>
      <trkpt lat="43.97635" lon="2.26855">
        <ele>355.34</ele>
        <time>2020-06-30T15:08:46Z</time>
      </trkpt>
      <trkpt lat="43.97632" lon="2.26873">
        <ele>356.79</ele>
        <time>2020-06-30T15:08:56Z</time>
      </trkpt>
      <trkpt lat="43.97628" lon="2.26895">
        <ele>356.79</ele>
        <time>2020-06-30T15:09:07Z</time>
      </trkpt>
      <trkpt lat="43.97624" lon="2.26911">
        <ele>356.79</ele>
        <time>2020-06-30T15:09:15Z</time>
      </trkpt>
      <trkpt lat="43.97618" lon="2.26929">
        <ele>357.27</ele>
        <time>2020-06-30T15:09:25Z</time>
      </trkpt>
      <trkpt lat="43.9761" lon="2.26946">
        <ele>358.71</ele>
        <time>2020-06-30T15:09:36Z</time>
      </trkpt>
      <trkpt lat="43.97604" lon="2.26956">
        <ele>358.71</ele>
        <time>2020-06-30T15:09:44Z</time>
      </trkpt>
      <trkpt lat="43.97597" lon="2.26972">
        <ele>359.19</ele>
        <time>2020-06-30T15:09:54Z</time>
      </trkpt>
      <trkpt lat="43.97591" lon="2.26986">
        <ele>358.71</ele>
        <time>2020-06-30T15:10:02Z</time>
      </trkpt>
      <trkpt lat="43.97581" lon="2.27003">
        <ele>358.23</ele>
        <time>2020-06-30T15:10:12Z</time>
      </trkpt>
      <trkpt lat="43.97571" lon="2.2702">
        <ele>358.71</ele>
        <time>2020-06-30T15:10:22Z</time>
      </trkpt>
      <trkpt lat="43.9756" lon="2.27036">
        <ele>360.63</ele>
        <time>2020-06-30T15:10:33Z</time>
      </trkpt>
      <trkpt lat="43.97552" lon="2.27049">
        <ele>360.15</ele>
        <time>2020-06-30T15:10:43Z</time>
      </trkpt>
      <trkpt lat="43.97544" lon="2.27064">
        <ele>360.15</ele>
        <time>2020-06-30T15:10:54Z</time>
      </trkpt>
      <trkpt lat="43.97535" lon="2.27077">
        <ele>359.67</ele>
        <time>2020-06-30T15:11:04Z</time>
      </trkpt>
      <trkpt lat="43.97527" lon="2.27093">
        <ele>360.63</ele>
        <time>2020-06-30T15:11:14Z</time>
      </trkpt>
      <trkpt lat="43.9752" lon="2.27107">
        <ele>361.59</ele>
        <time>2020-06-30T15:11:24Z</time>
      </trkpt>
      <trkpt lat="43.97514" lon="2.27125">
        <ele>360.63</ele>
        <time>2020-06-30T15:11:35Z</time>
      </trkpt>
      <trkpt lat="43.97508" lon="2.27147">
        <ele>359.19</ele>
        <time>2020-06-30T15:11:46Z</time>
      </trkpt>
      <trkpt lat="43.97506" lon="2.2717">
        <ele>358.71</ele>
        <time>2020-06-30T15:11:57Z</time>
      </trkpt>
      <trkpt lat="43.97504" lon="2.27189">
        <ele>358.23</ele>
        <time>2020-06-30T15:12:06Z</time>
      </trkpt>
      <trkpt lat="43.97505" lon="2.27208">
        <ele>359.67</ele>
        <time>2020-06-30T15:12:15Z</time>
      </trkpt>
      <trkpt lat="43.97502" lon="2.27222">
        <ele>359.19</ele>
        <time>2020-06-30T15:12:22Z</time>
      </trkpt>
      <trkpt lat="43.97498" lon="2.27241">
        <ele>360.63</ele>
        <time>2020-06-30T15:12:31Z</time>
      </trkpt>
      <trkpt lat="43.97491" lon="2.27265">
        <ele>358.71</ele>
        <time>2020-06-30T15:12:43Z</time>
      </trkpt>
      <trkpt lat="43.97485" lon="2.27287">
        <ele>357.75</ele>
        <time>2020-06-30T15:12:54Z</time>
      </trkpt>
      <trkpt lat="43.97477" lon="2.27309">
        <ele>356.79</ele>
        <time>2020-06-30T15:13:06Z</time>
      </trkpt>
      <trkpt lat="43.97469" lon="2.27332">
        <ele>357.27</ele>
        <time>2020-06-30T15:13:18Z</time>
      </trkpt>
      <trkpt lat="43.9746" lon="2.27355">
        <ele>357.75</ele>
        <time>2020-06-30T15:13:31Z</time>
      </trkpt>
      <trkpt lat="43.97452" lon="2.2738">
        <ele>358.23</ele>
        <time>2020-06-30T15:13:43Z</time>
      </trkpt>
      <trkpt lat="43.97444" lon="2.27406">
        <ele>359.19</ele>
        <time>2020-06-30T15:13:55Z</time>
      </trkpt>
      <trkpt lat="43.9744" lon="2.27422">
        <ele>358.71</ele>
        <time>2020-06-30T15:14:03Z</time>
      </trkpt>
      <trkpt lat="43.97431" lon="2.27444">
        <ele>356.31</ele>
        <time>2020-06-30T15:14:15Z</time>
      </trkpt>
      <trkpt lat="43.97417" lon="2.27461">
        <ele>354.38</ele>
        <time>2020-06-30T15:14:27Z</time>
      </trkpt>
      <trkpt lat="43.97403" lon="2.27474">
        <ele>355.34</ele>
        <time>2020-06-30T15:14:38Z</time>
      </trkpt>
      <trkpt lat="43.9739" lon="2.27485">
        <ele>356.79</ele>
        <time>2020-06-30T15:14:49Z</time>
      </trkpt>
      <trkpt lat="43.97374" lon="2.27495">
        <ele>357.27</ele>
        <time>2020-06-30T15:15:00Z</time>
      </trkpt>
      <trkpt lat="43.9736" lon="2.27503">
        <ele>358.71</ele>
        <time>2020-06-30T15:15:10Z</time>
      </trkpt>
      <trkpt lat="43.97348" lon="2.27511">
        <ele>359.19</ele>
        <time>2020-06-30T15:15:20Z</time>
      </trkpt>
      <trkpt lat="43.97333" lon="2.27518">
        <ele>360.63</ele>
        <time>2020-06-30T15:15:30Z</time>
      </trkpt>
      <trkpt lat="43.97324" lon="2.27521">
        <ele>361.11</ele>
        <time>2020-06-30T15:15:37Z</time>
      </trkpt>
      <trkpt lat="43.97311" lon="2.27526">
        <ele>360.63</ele>
        <time>2020-06-30T15:15:47Z</time>
      </trkpt>
      <trkpt lat="43.973" lon="2.27529">
        <ele>360.63</ele>
        <time>2020-06-30T15:15:55Z</time>
      </trkpt>
      <trkpt lat="43.97288" lon="2.27531">
        <ele>361.11</ele>
        <time>2020-06-30T15:16:04Z</time>
      </trkpt>
      <trkpt lat="43.97286" lon="2.27531">
        <ele>361.11</ele>
        <time>2020-06-30T15:16:06Z</time>
      </trkpt>
      <trkpt lat="43.97272" lon="2.27537">
        <ele>360.63</ele>
        <time>2020-06-30T15:16:16Z</time>
      </trkpt>
      <trkpt lat="43.97268" lon="2.27539">
        <ele>360.15</ele>
        <time>2020-06-30T15:16:23Z</time>
      </trkpt>
      <trkpt lat="43.97268" lon="2.2754">
        <ele>360.63</ele>
        <time>2020-06-30T15:16:40Z</time>
      </trkpt>
      <trkpt lat="43.97267" lon="2.27549">
        <ele>361.59</ele>
        <time>2020-06-30T15:16:46Z</time>
      </trkpt>
      <trkpt lat="43.97276" lon="2.27565">
        <ele>363.04</ele>
        <time>2020-06-30T15:16:57Z</time>
      </trkpt>
      <trkpt lat="43.97282" lon="2.27572">
        <ele>364</ele>
        <time>2020-06-30T15:17:02Z</time>
      </trkpt>
      <trkpt lat="43.97285" lon="2.27585">
        <ele>363.52</ele>
        <time>2020-06-30T15:17:10Z</time>
      </trkpt>
      <trkpt lat="43.97286" lon="2.27601">
        <ele>363.04</ele>
        <time>2020-06-30T15:17:19Z</time>
      </trkpt>
      <trkpt lat="43.97283" lon="2.27619">
        <ele>364.96</ele>
        <time>2020-06-30T15:17:28Z</time>
      </trkpt>
      <trkpt lat="43.9728" lon="2.27635">
        <ele>364.48</ele>
        <time>2020-06-30T15:17:36Z</time>
      </trkpt>
      <trkpt lat="43.97273" lon="2.27641">
        <ele>363.52</ele>
        <time>2020-06-30T15:17:44Z</time>
      </trkpt>
      <trkpt lat="43.97272" lon="2.27641">
        <ele>363.04</ele>
        <time>2020-06-30T15:17:45Z</time>
      </trkpt>
      <trkpt lat="43.97261" lon="2.27641">
        <ele>360.63</ele>
        <time>2020-06-30T15:17:54Z</time>
      </trkpt>
      <trkpt lat="43.97249" lon="2.27643">
        <ele>357.75</ele>
        <time>2020-06-30T15:18:03Z</time>
      </trkpt>
      <trkpt lat="43.97236" lon="2.27646">
        <ele>355.83</ele>
        <time>2020-06-30T15:18:12Z</time>
      </trkpt>
      <trkpt lat="43.97233" lon="2.27648">
        <ele>355.34</ele>
        <time>2020-06-30T15:18:14Z</time>
      </trkpt>
      <trkpt lat="43.97217" lon="2.2765">
        <ele>354.86</ele>
        <time>2020-06-30T15:18:24Z</time>
      </trkpt>
      <trkpt lat="43.97204" lon="2.27654">
        <ele>354.86</ele>
        <time>2020-06-30T15:18:33Z</time>
      </trkpt>
      <trkpt lat="43.97193" lon="2.27657">
        <ele>353.9</ele>
        <time>2020-06-30T15:18:42Z</time>
      </trkpt>
      <trkpt lat="43.97185" lon="2.2766">
        <ele>353.42</ele>
        <time>2020-06-30T15:18:50Z</time>
      </trkpt>
      <trkpt lat="43.97179" lon="2.27661">
        <ele>352.94</ele>
        <time>2020-06-30T15:18:57Z</time>
      </trkpt>
      <trkpt lat="43.97172" lon="2.27662">
        <ele>350.54</ele>
        <time>2020-06-30T15:19:04Z</time>
      </trkpt>
      <trkpt lat="43.97167" lon="2.27663">
        <ele>349.58</ele>
        <time>2020-06-30T15:19:09Z</time>
      </trkpt>
      <trkpt lat="43.97155" lon="2.27667">
        <ele>347.65</ele>
        <time>2020-06-30T15:19:18Z</time>
      </trkpt>
      <trkpt lat="43.97145" lon="2.27671">
        <ele>345.73</ele>
        <time>2020-06-30T15:19:26Z</time>
      </trkpt>
      <trkpt lat="43.97135" lon="2.27674">
        <ele>344.77</ele>
        <time>2020-06-30T15:19:33Z</time>
      </trkpt>
      <trkpt lat="43.97128" lon="2.27678">
        <ele>343.33</ele>
        <time>2020-06-30T15:19:38Z</time>
      </trkpt>
      <trkpt lat="43.97114" lon="2.27686">
        <ele>339</ele>
        <time>2020-06-30T15:19:48Z</time>
      </trkpt>
      <trkpt lat="43.97104" lon="2.27692">
        <ele>337.56</ele>
        <time>2020-06-30T15:19:55Z</time>
      </trkpt>
      <trkpt lat="43.97093" lon="2.27701">
        <ele>336.12</ele>
        <time>2020-06-30T15:20:03Z</time>
      </trkpt>
      <trkpt lat="43.97083" lon="2.27708">
        <ele>335.16</ele>
        <time>2020-06-30T15:20:11Z</time>
      </trkpt>
      <trkpt lat="43.97076" lon="2.27709">
        <ele>331.31</ele>
        <time>2020-06-30T15:20:21Z</time>
      </trkpt>
      <trkpt lat="43.97066" lon="2.27713">
        <ele>328.91</ele>
        <time>2020-06-30T15:20:30Z</time>
      </trkpt>
      <trkpt lat="43.97055" lon="2.2772">
        <ele>328.43</ele>
        <time>2020-06-30T15:20:38Z</time>
      </trkpt>
      <trkpt lat="43.97043" lon="2.2773">
        <ele>329.39</ele>
        <time>2020-06-30T15:20:47Z</time>
      </trkpt>
      <trkpt lat="43.97032" lon="2.27734">
        <ele>331.79</ele>
        <time>2020-06-30T15:20:55Z</time>
      </trkpt>
      <trkpt lat="43.97024" lon="2.27733">
        <ele>330.83</ele>
        <time>2020-06-30T15:21:01Z</time>
      </trkpt>
      <trkpt lat="43.97018" lon="2.27728">
        <ele>330.35</ele>
        <time>2020-06-30T15:21:07Z</time>
      </trkpt>
      <trkpt lat="43.97003" lon="2.27721">
        <ele>330.83</ele>
        <time>2020-06-30T15:21:18Z</time>
      </trkpt>
      <trkpt lat="43.9699" lon="2.27718">
        <ele>330.83</ele>
        <time>2020-06-30T15:21:27Z</time>
      </trkpt>
      <trkpt lat="43.96979" lon="2.2772">
        <ele>331.79</ele>
        <time>2020-06-30T15:21:34Z</time>
      </trkpt>
      <trkpt lat="43.96968" lon="2.27722">
        <ele>331.31</ele>
        <time>2020-06-30T15:21:42Z</time>
      </trkpt>
      <trkpt lat="43.96955" lon="2.27724">
        <ele>330.83</ele>
        <time>2020-06-30T15:21:51Z</time>
      </trkpt>
      <trkpt lat="43.96941" lon="2.27724">
        <ele>328.91</ele>
        <time>2020-06-30T15:22:01Z</time>
      </trkpt>
      <trkpt lat="43.9693" lon="2.27723">
        <ele>326.99</ele>
        <time>2020-06-30T15:22:09Z</time>
      </trkpt>
      <trkpt lat="43.96922" lon="2.27723">
        <ele>326.5</ele>
        <time>2020-06-30T15:22:16Z</time>
      </trkpt>
      <trkpt lat="43.9692" lon="2.27722">
        <ele>326.02</ele>
        <time>2020-06-30T15:22:22Z</time>
      </trkpt>
      <trkpt lat="43.96915" lon="2.27723">
        <ele>325.54</ele>
        <time>2020-06-30T15:22:27Z</time>
      </trkpt>
      <trkpt lat="43.96907" lon="2.27725">
        <ele>324.1</ele>
        <time>2020-06-30T15:22:35Z</time>
      </trkpt>
      <trkpt lat="43.96894" lon="2.2772">
        <ele>320.74</ele>
        <time>2020-06-30T15:22:44Z</time>
      </trkpt>
      <trkpt lat="43.96886" lon="2.27714">
        <ele>318.81</ele>
        <time>2020-06-30T15:22:52Z</time>
      </trkpt>
      <trkpt lat="43.96874" lon="2.27712">
        <ele>316.89</ele>
        <time>2020-06-30T15:23:00Z</time>
      </trkpt>
      <trkpt lat="43.96863" lon="2.27719">
        <ele>314.97</ele>
        <time>2020-06-30T15:23:07Z</time>
      </trkpt>
      <trkpt lat="43.96855" lon="2.27726">
        <ele>314.01</ele>
        <time>2020-06-30T15:23:15Z</time>
      </trkpt>
      <trkpt lat="43.96855" lon="2.27725">
        <ele>311.12</ele>
        <time>2020-06-30T15:23:30Z</time>
      </trkpt>
      <trkpt lat="43.96851" lon="2.27729">
        <ele>312.57</ele>
        <time>2020-06-30T15:23:36Z</time>
      </trkpt>
      <trkpt lat="43.9685" lon="2.27729">
        <ele>312.57</ele>
        <time>2020-06-30T15:23:37Z</time>
      </trkpt>
      <trkpt lat="43.96835" lon="2.27737">
        <ele>315.93</ele>
        <time>2020-06-30T15:23:47Z</time>
      </trkpt>
      <trkpt lat="43.96823" lon="2.27739">
        <ele>314.97</ele>
        <time>2020-06-30T15:23:56Z</time>
      </trkpt>
      <trkpt lat="43.96813" lon="2.27734">
        <ele>313.05</ele>
        <time>2020-06-30T15:24:05Z</time>
      </trkpt>
      <trkpt lat="43.96811" lon="2.27732">
        <ele>312.57</ele>
        <time>2020-06-30T15:24:07Z</time>
      </trkpt>
      <trkpt lat="43.96806" lon="2.27732">
        <ele>312.57</ele>
        <time>2020-06-30T15:24:11Z</time>
      </trkpt>
      <trkpt lat="43.96795" lon="2.27727">
        <ele>309.68</ele>
        <time>2020-06-30T15:24:19Z</time>
      </trkpt>
      <trkpt lat="43.96792" lon="2.27726">
        <ele>308.72</ele>
        <time>2020-06-30T15:24:22Z</time>
      </trkpt>
      <trkpt lat="43.96778" lon="2.2772">
        <ele>304.39</ele>
        <time>2020-06-30T15:24:31Z</time>
      </trkpt>
      <trkpt lat="43.96773" lon="2.27721">
        <ele>302.47</ele>
        <time>2020-06-30T15:24:35Z</time>
      </trkpt>
      <trkpt lat="43.96755" lon="2.27723">
        <ele>299.11</ele>
        <time>2020-06-30T15:24:47Z</time>
      </trkpt>
      <trkpt lat="43.96746" lon="2.27727">
        <ele>298.63</ele>
        <time>2020-06-30T15:24:55Z</time>
      </trkpt>
      <trkpt lat="43.96734" lon="2.27734">
        <ele>296.22</ele>
        <time>2020-06-30T15:25:05Z</time>
      </trkpt>
      <trkpt lat="43.96725" lon="2.27739">
        <ele>293.82</ele>
        <time>2020-06-30T15:25:13Z</time>
      </trkpt>
      <trkpt lat="43.96722" lon="2.27739">
        <ele>292.38</ele>
        <time>2020-06-30T15:25:22Z</time>
      </trkpt>
      <trkpt lat="43.96719" lon="2.2774">
        <ele>291.9</ele>
        <time>2020-06-30T15:25:30Z</time>
      </trkpt>
      <trkpt lat="43.96707" lon="2.27746">
        <ele>291.42</ele>
        <time>2020-06-30T15:25:40Z</time>
      </trkpt>
      <trkpt lat="43.96698" lon="2.27753">
        <ele>289.01</ele>
        <time>2020-06-30T15:25:48Z</time>
      </trkpt>
      <trkpt lat="43.96691" lon="2.27763">
        <ele>288.05</ele>
        <time>2020-06-30T15:25:55Z</time>
      </trkpt>
      <trkpt lat="43.96687" lon="2.27765">
        <ele>287.57</ele>
        <time>2020-06-30T15:25:59Z</time>
      </trkpt>
      <trkpt lat="43.96676" lon="2.27772">
        <ele>288.05</ele>
        <time>2020-06-30T15:26:08Z</time>
      </trkpt>
      <trkpt lat="43.96675" lon="2.27773">
        <ele>288.05</ele>
        <time>2020-06-30T15:26:09Z</time>
      </trkpt>
      <trkpt lat="43.9667" lon="2.27779">
        <ele>289.49</ele>
        <time>2020-06-30T15:26:13Z</time>
      </trkpt>
      <trkpt lat="43.96658" lon="2.2779">
        <ele>291.42</ele>
        <time>2020-06-30T15:26:22Z</time>
      </trkpt>
      <trkpt lat="43.96644" lon="2.27796">
        <ele>294.78</ele>
        <time>2020-06-30T15:26:32Z</time>
      </trkpt>
      <trkpt lat="43.96629" lon="2.27793">
        <ele>297.67</ele>
        <time>2020-06-30T15:26:42Z</time>
      </trkpt>
      <trkpt lat="43.96614" lon="2.27789">
        <ele>299.59</ele>
        <time>2020-06-30T15:26:53Z</time>
      </trkpt>
      <trkpt lat="43.96602" lon="2.27783">
        <ele>299.59</ele>
        <time>2020-06-30T15:27:01Z</time>
      </trkpt>
      <trkpt lat="43.96592" lon="2.27779">
        <ele>299.59</ele>
        <time>2020-06-30T15:27:09Z</time>
      </trkpt>
      <trkpt lat="43.96578" lon="2.2777">
        <ele>299.11</ele>
        <time>2020-06-30T15:27:20Z</time>
      </trkpt>
      <trkpt lat="43.96563" lon="2.27764">
        <ele>299.11</ele>
        <time>2020-06-30T15:27:30Z</time>
      </trkpt>
      <trkpt lat="43.96562" lon="2.27763">
        <ele>299.11</ele>
        <time>2020-06-30T15:27:31Z</time>
      </trkpt>
      <trkpt lat="43.96551" lon="2.27761">
        <ele>300.07</ele>
        <time>2020-06-30T15:27:40Z</time>
      </trkpt>
      <trkpt lat="43.96543" lon="2.27758">
        <ele>301.51</ele>
        <time>2020-06-30T15:27:47Z</time>
      </trkpt>
      <trkpt lat="43.96529" lon="2.27756">
        <ele>302.95</ele>
        <time>2020-06-30T15:27:56Z</time>
      </trkpt>
      <trkpt lat="43.96516" lon="2.27754">
        <ele>303.43</ele>
        <time>2020-06-30T15:28:05Z</time>
      </trkpt>
      <trkpt lat="43.96504" lon="2.27753">
        <ele>304.39</ele>
        <time>2020-06-30T15:28:13Z</time>
      </trkpt>
      <trkpt lat="43.96492" lon="2.27751">
        <ele>301.99</ele>
        <time>2020-06-30T15:28:22Z</time>
      </trkpt>
      <trkpt lat="43.96483" lon="2.27746">
        <ele>300.07</ele>
        <time>2020-06-30T15:28:31Z</time>
      </trkpt>
      <trkpt lat="43.96468" lon="2.27742">
        <ele>301.51</ele>
        <time>2020-06-30T15:28:40Z</time>
      </trkpt>
      <trkpt lat="43.96459" lon="2.2774">
        <ele>300.07</ele>
        <time>2020-06-30T15:28:49Z</time>
      </trkpt>
      <trkpt lat="43.96447" lon="2.27735">
        <ele>300.55</ele>
        <time>2020-06-30T15:28:57Z</time>
      </trkpt>
      <trkpt lat="43.96434" lon="2.27733">
        <ele>303.91</ele>
        <time>2020-06-30T15:29:05Z</time>
      </trkpt>
      <trkpt lat="43.96424" lon="2.27733">
        <ele>303.43</ele>
        <time>2020-06-30T15:29:12Z</time>
      </trkpt>
      <trkpt lat="43.96413" lon="2.27734">
        <ele>304.39</ele>
        <time>2020-06-30T15:29:20Z</time>
      </trkpt>
      <trkpt lat="43.96404" lon="2.27737">
        <ele>305.36</ele>
        <time>2020-06-30T15:29:27Z</time>
      </trkpt>
      <trkpt lat="43.96392" lon="2.27739">
        <ele>307.28</ele>
        <time>2020-06-30T15:29:36Z</time>
      </trkpt>
      <trkpt lat="43.96381" lon="2.27737">
        <ele>312.57</ele>
        <time>2020-06-30T15:29:46Z</time>
      </trkpt>
      <trkpt lat="43.9638" lon="2.27736">
        <ele>313.05</ele>
        <time>2020-06-30T15:29:47Z</time>
      </trkpt>
      <trkpt lat="43.96376" lon="2.27723">
        <ele>315.45</ele>
        <time>2020-06-30T15:29:56Z</time>
      </trkpt>
      <trkpt lat="43.96377" lon="2.27722">
        <ele>315.93</ele>
        <time>2020-06-30T15:29:58Z</time>
      </trkpt>
      <trkpt lat="43.96388" lon="2.27713">
        <ele>320.74</ele>
        <time>2020-06-30T15:30:08Z</time>
      </trkpt>
      <trkpt lat="43.96397" lon="2.27706">
        <ele>323.62</ele>
        <time>2020-06-30T15:30:15Z</time>
      </trkpt>
      <trkpt lat="43.96406" lon="2.27699">
        <ele>326.99</ele>
        <time>2020-06-30T15:30:23Z</time>
      </trkpt>
      <trkpt lat="43.96415" lon="2.27694">
        <ele>330.35</ele>
        <time>2020-06-30T15:30:30Z</time>
      </trkpt>
      <trkpt lat="43.96424" lon="2.2769">
        <ele>334.68</ele>
        <time>2020-06-30T15:30:38Z</time>
      </trkpt>
      <trkpt lat="43.96434" lon="2.27685">
        <ele>336.12</ele>
        <time>2020-06-30T15:30:47Z</time>
      </trkpt>
      <trkpt lat="43.96446" lon="2.2768">
        <ele>338.52</ele>
        <time>2020-06-30T15:30:56Z</time>
      </trkpt>
      <trkpt lat="43.96458" lon="2.27675">
        <ele>339.96</ele>
        <time>2020-06-30T15:31:05Z</time>
      </trkpt>
      <trkpt lat="43.96471" lon="2.27674">
        <ele>340.44</ele>
        <time>2020-06-30T15:31:15Z</time>
      </trkpt>
      <trkpt lat="43.96473" lon="2.27672">
        <ele>339.96</ele>
        <time>2020-06-30T15:31:24Z</time>
      </trkpt>
      <trkpt lat="43.96478" lon="2.2767">
        <ele>340.44</ele>
        <time>2020-06-30T15:31:36Z</time>
      </trkpt>
      <trkpt lat="43.96489" lon="2.27666">
        <ele>342.37</ele>
        <time>2020-06-30T15:31:45Z</time>
      </trkpt>
      <trkpt lat="43.965" lon="2.27661">
        <ele>345.25</ele>
        <time>2020-06-30T15:31:53Z</time>
      </trkpt>
      <trkpt lat="43.96504" lon="2.27659">
        <ele>346.21</ele>
        <time>2020-06-30T15:32:01Z</time>
      </trkpt>
      <trkpt lat="43.96504" lon="2.2766">
        <ele>347.65</ele>
        <time>2020-06-30T15:32:12Z</time>
      </trkpt>
      <trkpt lat="43.96506" lon="2.2766">
        <ele>349.1</ele>
        <time>2020-06-30T15:32:19Z</time>
      </trkpt>
      <trkpt lat="43.96505" lon="2.27662">
        <ele>349.1</ele>
        <time>2020-06-30T15:32:24Z</time>
      </trkpt>
      <trkpt lat="43.96504" lon="2.27662">
        <ele>349.58</ele>
        <time>2020-06-30T15:32:42Z</time>
      </trkpt>
      <trkpt lat="43.96503" lon="2.27661">
        <ele>348.13</ele>
        <time>2020-06-30T15:33:00Z</time>
      </trkpt>
      <trkpt lat="43.96503" lon="2.27659">
        <ele>346.69</ele>
        <time>2020-06-30T15:33:18Z</time>
      </trkpt>
      <trkpt lat="43.96505" lon="2.27661">
        <ele>346.69</ele>
        <time>2020-06-30T15:33:28Z</time>
      </trkpt>
      <trkpt lat="43.96505" lon="2.27662">
        <ele>346.21</ele>
        <time>2020-06-30T15:33:37Z</time>
      </trkpt>
      <trkpt lat="43.96509" lon="2.27659">
        <ele>347.65</ele>
        <time>2020-06-30T15:33:44Z</time>
      </trkpt>
      <trkpt lat="43.96515" lon="2.27656">
        <ele>349.1</ele>
        <time>2020-06-30T15:33:51Z</time>
      </trkpt>
      <trkpt lat="43.96524" lon="2.27649">
        <ele>349.58</ele>
        <time>2020-06-30T15:33:59Z</time>
      </trkpt>
      <trkpt lat="43.96537" lon="2.27642">
        <ele>350.54</ele>
        <time>2020-06-30T15:34:09Z</time>
      </trkpt>
      <trkpt lat="43.96538" lon="2.27642">
        <ele>350.54</ele>
        <time>2020-06-30T15:34:10Z</time>
      </trkpt>
      <trkpt lat="43.96549" lon="2.27631">
        <ele>351.98</ele>
        <time>2020-06-30T15:34:20Z</time>
      </trkpt>
      <trkpt lat="43.96552" lon="2.27628">
        <ele>351.02</ele>
        <time>2020-06-30T15:34:27Z</time>
      </trkpt>
      <trkpt lat="43.96557" lon="2.27623">
        <ele>351.5</ele>
        <time>2020-06-30T15:34:39Z</time>
      </trkpt>
      <trkpt lat="43.96568" lon="2.27615">
        <ele>353.42</ele>
        <time>2020-06-30T15:34:48Z</time>
      </trkpt>
      <trkpt lat="43.96578" lon="2.27609">
        <ele>354.38</ele>
        <time>2020-06-30T15:34:56Z</time>
      </trkpt>
      <trkpt lat="43.96586" lon="2.276">
        <ele>353.9</ele>
        <time>2020-06-30T15:35:05Z</time>
      </trkpt>
      <trkpt lat="43.96597" lon="2.27589">
        <ele>354.38</ele>
        <time>2020-06-30T15:35:14Z</time>
      </trkpt>
      <trkpt lat="43.96607" lon="2.27579">
        <ele>354.86</ele>
        <time>2020-06-30T15:35:24Z</time>
      </trkpt>
      <trkpt lat="43.96616" lon="2.27568">
        <ele>354.86</ele>
        <time>2020-06-30T15:35:33Z</time>
      </trkpt>
      <trkpt lat="43.96627" lon="2.27559">
        <ele>355.83</ele>
        <time>2020-06-30T15:35:42Z</time>
      </trkpt>
      <trkpt lat="43.96635" lon="2.27553">
        <ele>357.27</ele>
        <time>2020-06-30T15:35:51Z</time>
      </trkpt>
      <trkpt lat="43.96639" lon="2.27548">
        <ele>358.23</ele>
        <time>2020-06-30T15:35:57Z</time>
      </trkpt>
      <trkpt lat="43.96643" lon="2.27536">
        <ele>358.23</ele>
        <time>2020-06-30T15:36:05Z</time>
      </trkpt>
      <trkpt lat="43.96643" lon="2.27532">
        <ele>358.23</ele>
        <time>2020-06-30T15:36:08Z</time>
      </trkpt>
      <trkpt lat="43.96651" lon="2.27512">
        <ele>356.79</ele>
        <time>2020-06-30T15:36:19Z</time>
      </trkpt>
      <trkpt lat="43.96656" lon="2.275">
        <ele>355.83</ele>
        <time>2020-06-30T15:36:27Z</time>
      </trkpt>
      <trkpt lat="43.96661" lon="2.27486">
        <ele>356.31</ele>
        <time>2020-06-30T15:36:34Z</time>
      </trkpt>
      <trkpt lat="43.96662" lon="2.27481">
        <ele>356.31</ele>
        <time>2020-06-30T15:36:37Z</time>
      </trkpt>
      <trkpt lat="43.96669" lon="2.27471">
        <ele>354.38</ele>
        <time>2020-06-30T15:36:44Z</time>
      </trkpt>
      <trkpt lat="43.96677" lon="2.27458">
        <ele>354.86</ele>
        <time>2020-06-30T15:36:52Z</time>
      </trkpt>
      <trkpt lat="43.96684" lon="2.27444">
        <ele>355.83</ele>
        <time>2020-06-30T15:37:00Z</time>
      </trkpt>
      <trkpt lat="43.96692" lon="2.27426">
        <ele>355.83</ele>
        <time>2020-06-30T15:37:10Z</time>
      </trkpt>
      <trkpt lat="43.96699" lon="2.27414">
        <ele>354.38</ele>
        <time>2020-06-30T15:37:18Z</time>
      </trkpt>
      <trkpt lat="43.96706" lon="2.27401">
        <ele>353.9</ele>
        <time>2020-06-30T15:37:26Z</time>
      </trkpt>
      <trkpt lat="43.96712" lon="2.27388">
        <ele>353.9</ele>
        <time>2020-06-30T15:37:34Z</time>
      </trkpt>
      <trkpt lat="43.96717" lon="2.27371">
        <ele>353.42</ele>
        <time>2020-06-30T15:37:43Z</time>
      </trkpt>
      <trkpt lat="43.96722" lon="2.27364">
        <ele>352.94</ele>
        <time>2020-06-30T15:37:51Z</time>
      </trkpt>
      <trkpt lat="43.96728" lon="2.2735">
        <ele>352.94</ele>
        <time>2020-06-30T15:38:00Z</time>
      </trkpt>
      <trkpt lat="43.96735" lon="2.27336">
        <ele>350.54</ele>
        <time>2020-06-30T15:38:09Z</time>
      </trkpt>
      <trkpt lat="43.96745" lon="2.27321">
        <ele>350.06</ele>
        <time>2020-06-30T15:38:19Z</time>
      </trkpt>
      <trkpt lat="43.9676" lon="2.27305">
        <ele>353.9</ele>
        <time>2020-06-30T15:38:30Z</time>
      </trkpt>
      <trkpt lat="43.96769" lon="2.27291">
        <ele>354.38</ele>
        <time>2020-06-30T15:38:38Z</time>
      </trkpt>
      <trkpt lat="43.96778" lon="2.27273">
        <ele>352.46</ele>
        <time>2020-06-30T15:38:49Z</time>
      </trkpt>
      <trkpt lat="43.96781" lon="2.27258">
        <ele>349.1</ele>
        <time>2020-06-30T15:38:58Z</time>
      </trkpt>
      <trkpt lat="43.96786" lon="2.27243">
        <ele>345.73</ele>
        <time>2020-06-30T15:39:06Z</time>
      </trkpt>
      <trkpt lat="43.96791" lon="2.27234">
        <ele>344.29</ele>
        <time>2020-06-30T15:39:12Z</time>
      </trkpt>
      <trkpt lat="43.96798" lon="2.27222">
        <ele>342.85</ele>
        <time>2020-06-30T15:39:21Z</time>
      </trkpt>
      <trkpt lat="43.96801" lon="2.2722">
        <ele>341.89</ele>
        <time>2020-06-30T15:39:24Z</time>
      </trkpt>
      <trkpt lat="43.96813" lon="2.27207">
        <ele>341.41</ele>
        <time>2020-06-30T15:39:34Z</time>
      </trkpt>
      <trkpt lat="43.96815" lon="2.27203">
        <ele>341.89</ele>
        <time>2020-06-30T15:39:36Z</time>
      </trkpt>
      <trkpt lat="43.96822" lon="2.27188">
        <ele>343.33</ele>
        <time>2020-06-30T15:39:45Z</time>
      </trkpt>
      <trkpt lat="43.96831" lon="2.27181">
        <ele>343.81</ele>
        <time>2020-06-30T15:39:54Z</time>
      </trkpt>
      <trkpt lat="43.96832" lon="2.2718">
        <ele>343.33</ele>
        <time>2020-06-30T15:39:55Z</time>
      </trkpt>
      <trkpt lat="43.9684" lon="2.27173">
        <ele>342.85</ele>
        <time>2020-06-30T15:40:03Z</time>
      </trkpt>
      <trkpt lat="43.96849" lon="2.27168">
        <ele>340.92</ele>
        <time>2020-06-30T15:40:09Z</time>
      </trkpt>
      <trkpt lat="43.96857" lon="2.27159">
        <ele>338.04</ele>
        <time>2020-06-30T15:40:17Z</time>
      </trkpt>
      <trkpt lat="43.96865" lon="2.27146">
        <ele>333.71</ele>
        <time>2020-06-30T15:40:26Z</time>
      </trkpt>
      <trkpt lat="43.9687" lon="2.27137">
        <ele>331.31</ele>
        <time>2020-06-30T15:40:33Z</time>
      </trkpt>
      <trkpt lat="43.96871" lon="2.27125">
        <ele>328.43</ele>
        <time>2020-06-30T15:40:41Z</time>
      </trkpt>
      <trkpt lat="43.96871" lon="2.27115">
        <ele>324.58</ele>
        <time>2020-06-30T15:40:49Z</time>
      </trkpt>
      <trkpt lat="43.96871" lon="2.27106">
        <ele>320.74</ele>
        <time>2020-06-30T15:40:57Z</time>
      </trkpt>
      <trkpt lat="43.96869" lon="2.27098">
        <ele>317.85</ele>
        <time>2020-06-30T15:41:11Z</time>
      </trkpt>
      <trkpt lat="43.96862" lon="2.27094">
        <ele>318.81</ele>
        <time>2020-06-30T15:41:20Z</time>
      </trkpt>
      <trkpt lat="43.96853" lon="2.27092">
        <ele>318.81</ele>
        <time>2020-06-30T15:41:29Z</time>
      </trkpt>
      <trkpt lat="43.96846" lon="2.27094">
        <ele>315.45</ele>
        <time>2020-06-30T15:41:38Z</time>
      </trkpt>
      <trkpt lat="43.96832" lon="2.27099">
        <ele>316.89</ele>
        <time>2020-06-30T15:41:47Z</time>
      </trkpt>
      <trkpt lat="43.96817" lon="2.27105">
        <ele>319.3</ele>
        <time>2020-06-30T15:41:56Z</time>
      </trkpt>
      <trkpt lat="43.96807" lon="2.2711">
        <ele>320.74</ele>
        <time>2020-06-30T15:42:03Z</time>
      </trkpt>
      <trkpt lat="43.96798" lon="2.27115">
        <ele>321.7</ele>
        <time>2020-06-30T15:42:10Z</time>
      </trkpt>
      <trkpt lat="43.96793" lon="2.27118">
        <ele>321.22</ele>
        <time>2020-06-30T15:42:13Z</time>
      </trkpt>
      <trkpt lat="43.96786" lon="2.27123">
        <ele>321.22</ele>
        <time>2020-06-30T15:42:17Z</time>
      </trkpt>
      <trkpt lat="43.9677" lon="2.27133">
        <ele>320.26</ele>
        <time>2020-06-30T15:42:28Z</time>
      </trkpt>
      <trkpt lat="43.96762" lon="2.27141">
        <ele>316.89</ele>
        <time>2020-06-30T15:42:36Z</time>
      </trkpt>
      <trkpt lat="43.96757" lon="2.27145">
        <ele>314.49</ele>
        <time>2020-06-30T15:42:41Z</time>
      </trkpt>
      <trkpt lat="43.96747" lon="2.27158">
        <ele>313.05</ele>
        <time>2020-06-30T15:42:51Z</time>
      </trkpt>
      <trkpt lat="43.96737" lon="2.27169">
        <ele>312.57</ele>
        <time>2020-06-30T15:42:59Z</time>
      </trkpt>
      <trkpt lat="43.96729" lon="2.27181">
        <ele>311.6</ele>
        <time>2020-06-30T15:43:07Z</time>
      </trkpt>
      <trkpt lat="43.96722" lon="2.27193">
        <ele>310.64</ele>
        <time>2020-06-30T15:43:16Z</time>
      </trkpt>
      <trkpt lat="43.96714" lon="2.27204">
        <ele>309.68</ele>
        <time>2020-06-30T15:43:24Z</time>
      </trkpt>
      <trkpt lat="43.96704" lon="2.27217">
        <ele>308.24</ele>
        <time>2020-06-30T15:43:33Z</time>
      </trkpt>
      <trkpt lat="43.96697" lon="2.27226">
        <ele>307.76</ele>
        <time>2020-06-30T15:43:41Z</time>
      </trkpt>
      <trkpt lat="43.96695" lon="2.2723">
        <ele>306.8</ele>
        <time>2020-06-30T15:43:43Z</time>
      </trkpt>
      <trkpt lat="43.96683" lon="2.27243">
        <ele>306.32</ele>
        <time>2020-06-30T15:43:53Z</time>
      </trkpt>
      <trkpt lat="43.96673" lon="2.27251">
        <ele>306.32</ele>
        <time>2020-06-30T15:44:01Z</time>
      </trkpt>
      <trkpt lat="43.96664" lon="2.27261">
        <ele>306.32</ele>
        <time>2020-06-30T15:44:09Z</time>
      </trkpt>
      <trkpt lat="43.96657" lon="2.27272">
        <ele>305.36</ele>
        <time>2020-06-30T15:44:17Z</time>
      </trkpt>
      <trkpt lat="43.96649" lon="2.27285">
        <ele>302.95</ele>
        <time>2020-06-30T15:44:25Z</time>
      </trkpt>
      <trkpt lat="43.9664" lon="2.27296">
        <ele>301.51</ele>
        <time>2020-06-30T15:44:33Z</time>
      </trkpt>
      <trkpt lat="43.96631" lon="2.27307">
        <ele>301.51</ele>
        <time>2020-06-30T15:44:42Z</time>
      </trkpt>
      <trkpt lat="43.96621" lon="2.2732">
        <ele>299.59</ele>
        <time>2020-06-30T15:44:52Z</time>
      </trkpt>
      <trkpt lat="43.96611" lon="2.27333">
        <ele>299.11</ele>
        <time>2020-06-30T15:45:01Z</time>
      </trkpt>
      <trkpt lat="43.96602" lon="2.27343">
        <ele>297.67</ele>
        <time>2020-06-30T15:45:10Z</time>
      </trkpt>
      <trkpt lat="43.96594" lon="2.27355">
        <ele>299.11</ele>
        <time>2020-06-30T15:45:18Z</time>
      </trkpt>
      <trkpt lat="43.96585" lon="2.27368">
        <ele>296.7</ele>
        <time>2020-06-30T15:45:27Z</time>
      </trkpt>
      <trkpt lat="43.96573" lon="2.27383">
        <ele>294.3</ele>
        <time>2020-06-30T15:45:36Z</time>
      </trkpt>
      <trkpt lat="43.96564" lon="2.27392">
        <ele>292.86</ele>
        <time>2020-06-30T15:45:44Z</time>
      </trkpt>
      <trkpt lat="43.96553" lon="2.27401">
        <ele>292.86</ele>
        <time>2020-06-30T15:45:52Z</time>
      </trkpt>
      <trkpt lat="43.96547" lon="2.27409">
        <ele>292.38</ele>
        <time>2020-06-30T15:45:58Z</time>
      </trkpt>
      <trkpt lat="43.96536" lon="2.2742">
        <ele>290.46</ele>
        <time>2020-06-30T15:46:08Z</time>
      </trkpt>
      <trkpt lat="43.96524" lon="2.27429">
        <ele>289.97</ele>
        <time>2020-06-30T15:46:17Z</time>
      </trkpt>
      <trkpt lat="43.96513" lon="2.27436">
        <ele>290.46</ele>
        <time>2020-06-30T15:46:25Z</time>
      </trkpt>
      <trkpt lat="43.96501" lon="2.2744">
        <ele>288.53</ele>
        <time>2020-06-30T15:46:33Z</time>
      </trkpt>
      <trkpt lat="43.96491" lon="2.27446">
        <ele>287.09</ele>
        <time>2020-06-30T15:46:40Z</time>
      </trkpt>
      <trkpt lat="43.96478" lon="2.27454">
        <ele>284.69</ele>
        <time>2020-06-30T15:46:50Z</time>
      </trkpt>
      <trkpt lat="43.96476" lon="2.27455">
        <ele>284.21</ele>
        <time>2020-06-30T15:46:52Z</time>
      </trkpt>
      <trkpt lat="43.96464" lon="2.27458">
        <ele>282.28</ele>
        <time>2020-06-30T15:47:02Z</time>
      </trkpt>
      <trkpt lat="43.96458" lon="2.27455">
        <ele>283.25</ele>
        <time>2020-06-30T15:47:21Z</time>
      </trkpt>
      <trkpt lat="43.96446" lon="2.27461">
        <ele>280.84</ele>
        <time>2020-06-30T15:47:31Z</time>
      </trkpt>
      <trkpt lat="43.96437" lon="2.27464">
        <ele>278.44</ele>
        <time>2020-06-30T15:47:40Z</time>
      </trkpt>
      <trkpt lat="43.96434" lon="2.27465">
        <ele>276.52</ele>
        <time>2020-06-30T15:47:51Z</time>
      </trkpt>
      <trkpt lat="43.96428" lon="2.27469">
        <ele>272.67</ele>
        <time>2020-06-30T15:48:00Z</time>
      </trkpt>
      <trkpt lat="43.96419" lon="2.27475">
        <ele>268.83</ele>
        <time>2020-06-30T15:48:09Z</time>
      </trkpt>
      <trkpt lat="43.96409" lon="2.27481">
        <ele>268.35</ele>
        <time>2020-06-30T15:48:18Z</time>
      </trkpt>
      <trkpt lat="43.9641" lon="2.27478">
        <ele>265.94</ele>
        <time>2020-06-30T15:48:30Z</time>
      </trkpt>
      <trkpt lat="43.96411" lon="2.27477">
        <ele>264.98</ele>
        <time>2020-06-30T15:48:47Z</time>
      </trkpt>
      <trkpt lat="43.96411" lon="2.27478">
        <ele>264.5</ele>
        <time>2020-06-30T15:48:55Z</time>
      </trkpt>
      <trkpt lat="43.96409" lon="2.27479">
        <ele>267.38</ele>
        <time>2020-06-30T15:49:08Z</time>
      </trkpt>
      <trkpt lat="43.96406" lon="2.27482">
        <ele>269.79</ele>
        <time>2020-06-30T15:49:13Z</time>
      </trkpt>
      <trkpt lat="43.96401" lon="2.27485">
        <ele>271.23</ele>
        <time>2020-06-30T15:49:21Z</time>
      </trkpt>
      <trkpt lat="43.9639" lon="2.27494">
        <ele>272.19</ele>
        <time>2020-06-30T15:49:29Z</time>
      </trkpt>
      <trkpt lat="43.96385" lon="2.27498">
        <ele>272.19</ele>
        <time>2020-06-30T15:49:34Z</time>
      </trkpt>
      <trkpt lat="43.96374" lon="2.27503">
        <ele>271.71</ele>
        <time>2020-06-30T15:49:42Z</time>
      </trkpt>
      <trkpt lat="43.96368" lon="2.2751">
        <ele>270.27</ele>
        <time>2020-06-30T15:49:48Z</time>
      </trkpt>
      <trkpt lat="43.96365" lon="2.27511">
        <ele>270.27</ele>
        <time>2020-06-30T15:49:51Z</time>
      </trkpt>
      <trkpt lat="43.96355" lon="2.27517">
        <ele>269.31</ele>
        <time>2020-06-30T15:49:59Z</time>
      </trkpt>
      <trkpt lat="43.96342" lon="2.27525">
        <ele>271.23</ele>
        <time>2020-06-30T15:50:08Z</time>
      </trkpt>
      <trkpt lat="43.96331" lon="2.27531">
        <ele>269.31</ele>
        <time>2020-06-30T15:50:16Z</time>
      </trkpt>
      <trkpt lat="43.96318" lon="2.27538">
        <ele>268.35</ele>
        <time>2020-06-30T15:50:25Z</time>
      </trkpt>
      <trkpt lat="43.96309" lon="2.27545">
        <ele>267.38</ele>
        <time>2020-06-30T15:50:33Z</time>
      </trkpt>
      <trkpt lat="43.96296" lon="2.27556">
        <ele>267.38</ele>
        <time>2020-06-30T15:50:42Z</time>
      </trkpt>
      <trkpt lat="43.96285" lon="2.27564">
        <ele>267.38</ele>
        <time>2020-06-30T15:50:50Z</time>
      </trkpt>
      <trkpt lat="43.96274" lon="2.27569">
        <ele>265.94</ele>
        <time>2020-06-30T15:50:59Z</time>
      </trkpt>
      <trkpt lat="43.96261" lon="2.27573">
        <ele>265.46</ele>
        <time>2020-06-30T15:51:08Z</time>
      </trkpt>
      <trkpt lat="43.96251" lon="2.27579">
        <ele>264.98</ele>
        <time>2020-06-30T15:51:15Z</time>
      </trkpt>
      <trkpt lat="43.96236" lon="2.27588">
        <ele>261.62</ele>
        <time>2020-06-30T15:51:27Z</time>
      </trkpt>
      <trkpt lat="43.96226" lon="2.27594">
        <ele>259.21</ele>
        <time>2020-06-30T15:51:35Z</time>
      </trkpt>
      <trkpt lat="43.96213" lon="2.27604">
        <ele>257.29</ele>
        <time>2020-06-30T15:51:45Z</time>
      </trkpt>
      <trkpt lat="43.96202" lon="2.27613">
        <ele>254.89</ele>
        <time>2020-06-30T15:51:54Z</time>
      </trkpt>
      <trkpt lat="43.96193" lon="2.2762">
        <ele>252.48</ele>
        <time>2020-06-30T15:52:01Z</time>
      </trkpt>
      <trkpt lat="43.9619" lon="2.27622">
        <ele>252</ele>
        <time>2020-06-30T15:52:03Z</time>
      </trkpt>
      <trkpt lat="43.96188" lon="2.27622">
        <ele>251.04</ele>
        <time>2020-06-30T15:52:05Z</time>
      </trkpt>
      <trkpt lat="43.96175" lon="2.27631">
        <ele>249.12</ele>
        <time>2020-06-30T15:52:15Z</time>
      </trkpt>
      <trkpt lat="43.96167" lon="2.27634">
        <ele>246.72</ele>
        <time>2020-06-30T15:52:22Z</time>
      </trkpt>
      <trkpt lat="43.96164" lon="2.27633">
        <ele>246.23</ele>
        <time>2020-06-30T15:52:24Z</time>
      </trkpt>
      <trkpt lat="43.96159" lon="2.27629">
        <ele>244.31</ele>
        <time>2020-06-30T15:52:29Z</time>
      </trkpt>
      <trkpt lat="43.9615" lon="2.27615">
        <ele>244.31</ele>
        <time>2020-06-30T15:52:38Z</time>
      </trkpt>
      <trkpt lat="43.96144" lon="2.27604">
        <ele>243.83</ele>
        <time>2020-06-30T15:52:45Z</time>
      </trkpt>
      <trkpt lat="43.96135" lon="2.2759">
        <ele>244.31</ele>
        <time>2020-06-30T15:52:53Z</time>
      </trkpt>
      <trkpt lat="43.96128" lon="2.27583">
        <ele>243.83</ele>
        <time>2020-06-30T15:52:59Z</time>
      </trkpt>
      <trkpt lat="43.96116" lon="2.27574">
        <ele>241.91</ele>
        <time>2020-06-30T15:53:08Z</time>
      </trkpt>
      <trkpt lat="43.96106" lon="2.27563">
        <ele>240.47</ele>
        <time>2020-06-30T15:53:17Z</time>
      </trkpt>
      <trkpt lat="43.96095" lon="2.27554">
        <ele>239.99</ele>
        <time>2020-06-30T15:53:25Z</time>
      </trkpt>
      <trkpt lat="43.96084" lon="2.27544">
        <ele>239.02</ele>
        <time>2020-06-30T15:53:34Z</time>
      </trkpt>
      <trkpt lat="43.96077" lon="2.2754">
        <ele>238.54</ele>
        <time>2020-06-30T15:53:39Z</time>
      </trkpt>
      <trkpt lat="43.96066" lon="2.2754">
        <ele>237.58</ele>
        <time>2020-06-30T15:53:48Z</time>
      </trkpt>
      <trkpt lat="43.96049" lon="2.27545">
        <ele>237.1</ele>
        <time>2020-06-30T15:53:58Z</time>
      </trkpt>
      <trkpt lat="43.96039" lon="2.27549">
        <ele>237.58</ele>
        <time>2020-06-30T15:54:05Z</time>
      </trkpt>
      <trkpt lat="43.96026" lon="2.27561">
        <ele>235.18</ele>
        <time>2020-06-30T15:54:16Z</time>
      </trkpt>
      <trkpt lat="43.96016" lon="2.27572">
        <ele>233.74</ele>
        <time>2020-06-30T15:54:25Z</time>
      </trkpt>
      <trkpt lat="43.96007" lon="2.27582">
        <ele>233.26</ele>
        <time>2020-06-30T15:54:34Z</time>
      </trkpt>
      <trkpt lat="43.95999" lon="2.27592">
        <ele>232.78</ele>
        <time>2020-06-30T15:54:42Z</time>
      </trkpt>
      <trkpt lat="43.95992" lon="2.27602">
        <ele>231.33</ele>
        <time>2020-06-30T15:54:50Z</time>
      </trkpt>
      <trkpt lat="43.95986" lon="2.27614">
        <ele>230.85</ele>
        <time>2020-06-30T15:54:57Z</time>
      </trkpt>
      <trkpt lat="43.95978" lon="2.27629">
        <ele>231.33</ele>
        <time>2020-06-30T15:55:06Z</time>
      </trkpt>
      <trkpt lat="43.95968" lon="2.27646">
        <ele>232.3</ele>
        <time>2020-06-30T15:55:15Z</time>
      </trkpt>
      <trkpt lat="43.95957" lon="2.2766">
        <ele>230.85</ele>
        <time>2020-06-30T15:55:26Z</time>
      </trkpt>
      <trkpt lat="43.95955" lon="2.27662">
        <ele>230.37</ele>
        <time>2020-06-30T15:55:28Z</time>
      </trkpt>
      <trkpt lat="43.95944" lon="2.27676">
        <ele>229.41</ele>
        <time>2020-06-30T15:55:39Z</time>
      </trkpt>
      <trkpt lat="43.95936" lon="2.27683">
        <ele>228.93</ele>
        <time>2020-06-30T15:55:47Z</time>
      </trkpt>
      <trkpt lat="43.9593" lon="2.27697">
        <ele>228.45</ele>
        <time>2020-06-30T15:55:56Z</time>
      </trkpt>
      <trkpt lat="43.95929" lon="2.27699">
        <ele>228.45</ele>
        <time>2020-06-30T15:55:57Z</time>
      </trkpt>
      <trkpt lat="43.95923" lon="2.27719">
        <ele>230.85</ele>
        <time>2020-06-30T15:56:06Z</time>
      </trkpt>
      <trkpt lat="43.95918" lon="2.27733">
        <ele>233.74</ele>
        <time>2020-06-30T15:56:14Z</time>
      </trkpt>
      <trkpt lat="43.95912" lon="2.27738">
        <ele>234.22</ele>
        <time>2020-06-30T15:56:21Z</time>
      </trkpt>
      <trkpt lat="43.95908" lon="2.27738">
        <ele>234.22</ele>
        <time>2020-06-30T15:56:24Z</time>
      </trkpt>
      <trkpt lat="43.95904" lon="2.27736">
        <ele>233.74</ele>
        <time>2020-06-30T15:56:27Z</time>
      </trkpt>
      <trkpt lat="43.95894" lon="2.27734">
        <ele>232.78</ele>
        <time>2020-06-30T15:56:36Z</time>
      </trkpt>
      <trkpt lat="43.95885" lon="2.27734">
        <ele>230.85</ele>
        <time>2020-06-30T15:56:43Z</time>
      </trkpt>
      <trkpt lat="43.95871" lon="2.27731">
        <ele>229.89</ele>
        <time>2020-06-30T15:56:52Z</time>
      </trkpt>
      <trkpt lat="43.95858" lon="2.27732">
        <ele>229.41</ele>
        <time>2020-06-30T15:57:01Z</time>
      </trkpt>
      <trkpt lat="43.95846" lon="2.27733">
        <ele>228.93</ele>
        <time>2020-06-30T15:57:08Z</time>
      </trkpt>
      <trkpt lat="43.95842" lon="2.27748">
        <ele>227.49</ele>
        <time>2020-06-30T15:57:16Z</time>
      </trkpt>
      <trkpt lat="43.95841" lon="2.27753">
        <ele>227.97</ele>
        <time>2020-06-30T15:57:19Z</time>
      </trkpt>
      <trkpt lat="43.95842" lon="2.2777">
        <ele>226.05</ele>
        <time>2020-06-30T15:57:29Z</time>
      </trkpt>
      <trkpt lat="43.95843" lon="2.27783">
        <ele>224.61</ele>
        <time>2020-06-30T15:57:38Z</time>
      </trkpt>
      <trkpt lat="43.95842" lon="2.27797">
        <ele>224.12</ele>
        <time>2020-06-30T15:57:47Z</time>
      </trkpt>
      <trkpt lat="43.95838" lon="2.2781">
        <ele>226.05</ele>
        <time>2020-06-30T15:57:54Z</time>
      </trkpt>
      <trkpt lat="43.95831" lon="2.27823">
        <ele>225.57</ele>
        <time>2020-06-30T15:58:01Z</time>
      </trkpt>
      <trkpt lat="43.95828" lon="2.27831">
        <ele>225.09</ele>
        <time>2020-06-30T15:58:05Z</time>
      </trkpt>
      <trkpt lat="43.95815" lon="2.27844">
        <ele>224.12</ele>
        <time>2020-06-30T15:58:14Z</time>
      </trkpt>
      <trkpt lat="43.95804" lon="2.27849">
        <ele>226.05</ele>
        <time>2020-06-30T15:58:22Z</time>
      </trkpt>
      <trkpt lat="43.958" lon="2.2785">
        <ele>226.05</ele>
        <time>2020-06-30T15:58:26Z</time>
      </trkpt>
      <trkpt lat="43.95788" lon="2.27846">
        <ele>228.93</ele>
        <time>2020-06-30T15:58:34Z</time>
      </trkpt>
      <trkpt lat="43.95779" lon="2.27842">
        <ele>228.93</ele>
        <time>2020-06-30T15:58:41Z</time>
      </trkpt>
      <trkpt lat="43.9577" lon="2.27838">
        <ele>228.45</ele>
        <time>2020-06-30T15:58:48Z</time>
      </trkpt>
      <trkpt lat="43.95758" lon="2.27837">
        <ele>227.97</ele>
        <time>2020-06-30T15:58:57Z</time>
      </trkpt>
      <trkpt lat="43.95748" lon="2.27836">
        <ele>225.57</ele>
        <time>2020-06-30T15:59:05Z</time>
      </trkpt>
      <trkpt lat="43.95737" lon="2.27834">
        <ele>222.68</ele>
        <time>2020-06-30T15:59:13Z</time>
      </trkpt>
      <trkpt lat="43.95721" lon="2.27835">
        <ele>220.76</ele>
        <time>2020-06-30T15:59:22Z</time>
      </trkpt>
      <trkpt lat="43.9571" lon="2.27831">
        <ele>220.76</ele>
        <time>2020-06-30T15:59:30Z</time>
      </trkpt>
      <trkpt lat="43.95702" lon="2.27824">
        <ele>220.76</ele>
        <time>2020-06-30T15:59:37Z</time>
      </trkpt>
      <trkpt lat="43.95695" lon="2.27813">
        <ele>220.76</ele>
        <time>2020-06-30T15:59:44Z</time>
      </trkpt>
      <trkpt lat="43.95688" lon="2.27796">
        <ele>218.36</ele>
        <time>2020-06-30T15:59:53Z</time>
      </trkpt>
      <trkpt lat="43.95684" lon="2.27781">
        <ele>215.95</ele>
        <time>2020-06-30T16:00:00Z</time>
      </trkpt>
      <trkpt lat="43.9568" lon="2.27772">
        <ele>212.11</ele>
        <time>2020-06-30T16:00:07Z</time>
      </trkpt>
      <trkpt lat="43.95668" lon="2.27756">
        <ele>210.67</ele>
        <time>2020-06-30T16:00:17Z</time>
      </trkpt>
      <trkpt lat="43.95658" lon="2.27749">
        <ele>213.55</ele>
        <time>2020-06-30T16:00:24Z</time>
      </trkpt>
      <trkpt lat="43.95649" lon="2.27738">
        <ele>214.03</ele>
        <time>2020-06-30T16:00:31Z</time>
      </trkpt>
      <trkpt lat="43.95642" lon="2.27732">
        <ele>207.78</ele>
        <time>2020-06-30T16:00:39Z</time>
      </trkpt>
      <trkpt lat="43.95635" lon="2.2773">
        <ele>203.94</ele>
        <time>2020-06-30T16:00:44Z</time>
      </trkpt>
      <trkpt lat="43.95632" lon="2.27729">
        <ele>198.17</ele>
        <time>2020-06-30T16:00:50Z</time>
      </trkpt>
      <trkpt lat="43.95626" lon="2.27727">
        <ele>190</ele>
        <time>2020-06-30T16:00:58Z</time>
      </trkpt>
      <trkpt lat="43.95619" lon="2.27724">
        <ele>180.38</ele>
        <time>2020-06-30T16:01:06Z</time>
      </trkpt>
      <trkpt lat="43.95614" lon="2.27721">
        <ele>171.73</ele>
        <time>2020-06-30T16:01:13Z</time>
      </trkpt>
      <trkpt lat="43.95608" lon="2.27718">
        <ele>163.56</ele>
        <time>2020-06-30T16:01:20Z</time>
      </trkpt>
      <trkpt lat="43.95603" lon="2.27718">
        <ele>158.75</ele>
        <time>2020-06-30T16:01:26Z</time>
      </trkpt>
      <trkpt lat="43.95599" lon="2.27719">
        <ele>151.06</ele>
        <time>2020-06-30T16:01:36Z</time>
      </trkpt>
      <trkpt lat="43.95592" lon="2.27724">
        <ele>145.78</ele>
        <time>2020-06-30T16:01:44Z</time>
      </trkpt>
      <trkpt lat="43.95586" lon="2.2773">
        <ele>141.93</ele>
        <time>2020-06-30T16:01:52Z</time>
      </trkpt>
      <trkpt lat="43.95578" lon="2.2773">
        <ele>143.85</ele>
        <time>2020-06-30T16:02:00Z</time>
      </trkpt>
      <trkpt lat="43.95577" lon="2.27726">
        <ele>138.09</ele>
        <time>2020-06-30T16:02:10Z</time>
      </trkpt>
      <trkpt lat="43.95569" lon="2.27725">
        <ele>139.05</ele>
        <time>2020-06-30T16:02:19Z</time>
      </trkpt>
      <trkpt lat="43.95557" lon="2.27736">
        <ele>144.34</ele>
        <time>2020-06-30T16:02:28Z</time>
      </trkpt>
      <trkpt lat="43.95547" lon="2.2775">
        <ele>148.66</ele>
        <time>2020-06-30T16:02:38Z</time>
      </trkpt>
      <trkpt lat="43.95539" lon="2.27763">
        <ele>152.99</ele>
        <time>2020-06-30T16:02:46Z</time>
      </trkpt>
      <trkpt lat="43.95532" lon="2.27774">
        <ele>156.83</ele>
        <time>2020-06-30T16:02:54Z</time>
      </trkpt>
      <trkpt lat="43.95529" lon="2.27781">
        <ele>160.2</ele>
        <time>2020-06-30T16:02:59Z</time>
      </trkpt>
      <trkpt lat="43.95518" lon="2.27788">
        <ele>172.21</ele>
        <time>2020-06-30T16:03:03Z</time>
      </trkpt>
      <trkpt lat="43.95502" lon="2.27802">
        <ele>179.9</ele>
        <time>2020-06-30T16:03:12Z</time>
      </trkpt>
      <trkpt lat="43.95492" lon="2.27814">
        <ele>190</ele>
        <time>2020-06-30T16:03:21Z</time>
      </trkpt>
      <trkpt lat="43.95484" lon="2.27819">
        <ele>191.92</ele>
        <time>2020-06-30T16:03:30Z</time>
      </trkpt>
      <trkpt lat="43.95481" lon="2.27819">
        <ele>191.92</ele>
        <time>2020-06-30T16:03:33Z</time>
      </trkpt>
      <trkpt lat="43.9547" lon="2.27816">
        <ele>194.32</ele>
        <time>2020-06-30T16:03:41Z</time>
      </trkpt>
      <trkpt lat="43.9546" lon="2.27812">
        <ele>197.21</ele>
        <time>2020-06-30T16:03:48Z</time>
      </trkpt>
      <trkpt lat="43.95453" lon="2.27808">
        <ele>198.17</ele>
        <time>2020-06-30T16:03:54Z</time>
      </trkpt>
      <trkpt lat="43.95448" lon="2.27807">
        <ele>197.69</ele>
        <time>2020-06-30T16:04:01Z</time>
      </trkpt>
      <trkpt lat="43.95441" lon="2.27804">
        <ele>196.73</ele>
        <time>2020-06-30T16:04:08Z</time>
      </trkpt>
      <trkpt lat="43.95423" lon="2.27808">
        <ele>200.09</ele>
        <time>2020-06-30T16:04:16Z</time>
      </trkpt>
      <trkpt lat="43.95412" lon="2.27803">
        <ele>204.9</ele>
        <time>2020-06-30T16:04:23Z</time>
      </trkpt>
      <trkpt lat="43.95401" lon="2.27799">
        <ele>206.82</ele>
        <time>2020-06-30T16:04:30Z</time>
      </trkpt>
      <trkpt lat="43.95394" lon="2.27793">
        <ele>207.78</ele>
        <time>2020-06-30T16:04:37Z</time>
      </trkpt>
      <trkpt lat="43.95382" lon="2.27785">
        <ele>210.19</ele>
        <time>2020-06-30T16:04:46Z</time>
      </trkpt>
      <trkpt lat="43.95373" lon="2.27774">
        <ele>211.15</ele>
        <time>2020-06-30T16:04:54Z</time>
      </trkpt>
      <trkpt lat="43.95368" lon="2.27766">
        <ele>210.67</ele>
        <time>2020-06-30T16:05:01Z</time>
      </trkpt>
      <trkpt lat="43.95364" lon="2.27756">
        <ele>209.22</ele>
        <time>2020-06-30T16:05:09Z</time>
      </trkpt>
      <trkpt lat="43.95359" lon="2.27742">
        <ele>208.74</ele>
        <time>2020-06-30T16:05:18Z</time>
      </trkpt>
      <trkpt lat="43.95356" lon="2.27734">
        <ele>206.82</ele>
        <time>2020-06-30T16:05:26Z</time>
      </trkpt>
      <trkpt lat="43.95351" lon="2.27727">
        <ele>206.34</ele>
        <time>2020-06-30T16:05:33Z</time>
      </trkpt>
      <trkpt lat="43.95341" lon="2.27718">
        <ele>207.3</ele>
        <time>2020-06-30T16:05:42Z</time>
      </trkpt>
      <trkpt lat="43.95332" lon="2.27701">
        <ele>212.11</ele>
        <time>2020-06-30T16:05:49Z</time>
      </trkpt>
      <trkpt lat="43.95323" lon="2.27693">
        <ele>211.63</ele>
        <time>2020-06-30T16:05:57Z</time>
      </trkpt>
      <trkpt lat="43.9532" lon="2.27689">
        <ele>211.63</ele>
        <time>2020-06-30T16:06:02Z</time>
      </trkpt>
      <trkpt lat="43.95316" lon="2.27672">
        <ele>214.03</ele>
        <time>2020-06-30T16:06:11Z</time>
      </trkpt>
      <trkpt lat="43.95314" lon="2.27652">
        <ele>221.24</ele>
        <time>2020-06-30T16:06:18Z</time>
      </trkpt>
      <trkpt lat="43.95313" lon="2.27639">
        <ele>224.61</ele>
        <time>2020-06-30T16:06:26Z</time>
      </trkpt>
      <trkpt lat="43.95315" lon="2.27623">
        <ele>228.93</ele>
        <time>2020-06-30T16:06:34Z</time>
      </trkpt>
      <trkpt lat="43.9532" lon="2.27598">
        <ele>236.62</ele>
        <time>2020-06-30T16:06:43Z</time>
      </trkpt>
      <trkpt lat="43.95328" lon="2.27582">
        <ele>238.54</ele>
        <time>2020-06-30T16:06:52Z</time>
      </trkpt>
      <trkpt lat="43.95328" lon="2.27575">
        <ele>239.51</ele>
        <time>2020-06-30T16:06:58Z</time>
      </trkpt>
      <trkpt lat="43.9532" lon="2.2758">
        <ele>240.47</ele>
        <time>2020-06-30T16:07:07Z</time>
      </trkpt>
      <trkpt lat="43.95312" lon="2.27585">
        <ele>244.31</ele>
        <time>2020-06-30T16:07:15Z</time>
      </trkpt>
      <trkpt lat="43.95313" lon="2.27588">
        <ele>246.23</ele>
        <time>2020-06-30T16:07:32Z</time>
      </trkpt>
      <trkpt lat="43.95311" lon="2.27588">
        <ele>244.31</ele>
        <time>2020-06-30T16:07:48Z</time>
      </trkpt>
      <trkpt lat="43.95305" lon="2.27584">
        <ele>244.31</ele>
        <time>2020-06-30T16:07:56Z</time>
      </trkpt>
      <trkpt lat="43.95302" lon="2.27583">
        <ele>243.83</ele>
        <time>2020-06-30T16:07:58Z</time>
      </trkpt>
      <trkpt lat="43.95291" lon="2.27578">
        <ele>240.95</ele>
        <time>2020-06-30T16:08:07Z</time>
      </trkpt>
      <trkpt lat="43.95285" lon="2.27577">
        <ele>239.51</ele>
        <time>2020-06-30T16:08:13Z</time>
      </trkpt>
      <trkpt lat="43.95276" lon="2.27571">
        <ele>237.58</ele>
        <time>2020-06-30T16:08:21Z</time>
      </trkpt>
      <trkpt lat="43.95264" lon="2.27565">
        <ele>237.58</ele>
        <time>2020-06-30T16:08:29Z</time>
      </trkpt>
      <trkpt lat="43.95255" lon="2.2756">
        <ele>237.1</ele>
        <time>2020-06-30T16:08:36Z</time>
      </trkpt>
      <trkpt lat="43.95244" lon="2.27553">
        <ele>236.62</ele>
        <time>2020-06-30T16:08:44Z</time>
      </trkpt>
      <trkpt lat="43.95236" lon="2.27545">
        <ele>235.66</ele>
        <time>2020-06-30T16:08:51Z</time>
      </trkpt>
      <trkpt lat="43.95229" lon="2.27537">
        <ele>235.66</ele>
        <time>2020-06-30T16:08:57Z</time>
      </trkpt>
      <trkpt lat="43.95219" lon="2.27527">
        <ele>233.74</ele>
        <time>2020-06-30T16:09:05Z</time>
      </trkpt>
      <trkpt lat="43.95209" lon="2.27515">
        <ele>232.78</ele>
        <time>2020-06-30T16:09:13Z</time>
      </trkpt>
      <trkpt lat="43.95203" lon="2.27505">
        <ele>232.78</ele>
        <time>2020-06-30T16:09:19Z</time>
      </trkpt>
      <trkpt lat="43.95197" lon="2.27498">
        <ele>232.3</ele>
        <time>2020-06-30T16:09:24Z</time>
      </trkpt>
      <trkpt lat="43.95189" lon="2.27484">
        <ele>232.3</ele>
        <time>2020-06-30T16:09:32Z</time>
      </trkpt>
      <trkpt lat="43.95181" lon="2.2747">
        <ele>233.74</ele>
        <time>2020-06-30T16:09:41Z</time>
      </trkpt>
      <trkpt lat="43.95172" lon="2.27458">
        <ele>234.7</ele>
        <time>2020-06-30T16:09:49Z</time>
      </trkpt>
      <trkpt lat="43.95163" lon="2.27449">
        <ele>234.7</ele>
        <time>2020-06-30T16:09:57Z</time>
      </trkpt>
      <trkpt lat="43.95149" lon="2.27438">
        <ele>234.22</ele>
        <time>2020-06-30T16:10:08Z</time>
      </trkpt>
      <trkpt lat="43.95139" lon="2.27432">
        <ele>233.74</ele>
        <time>2020-06-30T16:10:17Z</time>
      </trkpt>
      <trkpt lat="43.95129" lon="2.27424">
        <ele>233.74</ele>
        <time>2020-06-30T16:10:25Z</time>
      </trkpt>
      <trkpt lat="43.9512" lon="2.27417">
        <ele>233.26</ele>
        <time>2020-06-30T16:10:33Z</time>
      </trkpt>
      <trkpt lat="43.95111" lon="2.27408">
        <ele>230.85</ele>
        <time>2020-06-30T16:10:41Z</time>
      </trkpt>
      <trkpt lat="43.95103" lon="2.27398">
        <ele>229.89</ele>
        <time>2020-06-30T16:10:49Z</time>
      </trkpt>
      <trkpt lat="43.95097" lon="2.27388">
        <ele>228.93</ele>
        <time>2020-06-30T16:10:56Z</time>
      </trkpt>
      <trkpt lat="43.95091" lon="2.27379">
        <ele>224.12</ele>
        <time>2020-06-30T16:11:05Z</time>
      </trkpt>
      <trkpt lat="43.95089" lon="2.27373">
        <ele>220.76</ele>
        <time>2020-06-30T16:11:09Z</time>
      </trkpt>
      <trkpt lat="43.95083" lon="2.27357">
        <ele>216.91</ele>
        <time>2020-06-30T16:11:17Z</time>
      </trkpt>
      <trkpt lat="43.95079" lon="2.27348">
        <ele>207.3</ele>
        <time>2020-06-30T16:11:26Z</time>
      </trkpt>
      <trkpt lat="43.95078" lon="2.27347">
        <ele>206.34</ele>
        <time>2020-06-30T16:11:27Z</time>
      </trkpt>
      <trkpt lat="43.95074" lon="2.2734">
        <ele>198.17</ele>
        <time>2020-06-30T16:11:35Z</time>
      </trkpt>
      <trkpt lat="43.95073" lon="2.27337">
        <ele>196.25</ele>
        <time>2020-06-30T16:11:37Z</time>
      </trkpt>
      <trkpt lat="43.95071" lon="2.27322">
        <ele>186.63</ele>
        <time>2020-06-30T16:11:46Z</time>
      </trkpt>
      <trkpt lat="43.9507" lon="2.27312">
        <ele>178.94</ele>
        <time>2020-06-30T16:11:54Z</time>
      </trkpt>
      <trkpt lat="43.9507" lon="2.27305">
        <ele>176.54</ele>
        <time>2020-06-30T16:11:58Z</time>
      </trkpt>
      <trkpt lat="43.95077" lon="2.27277">
        <ele>180.87</ele>
        <time>2020-06-30T16:12:07Z</time>
      </trkpt>
      <trkpt lat="43.95082" lon="2.27254">
        <ele>186.63</ele>
        <time>2020-06-30T16:12:16Z</time>
      </trkpt>
      <trkpt lat="43.95082" lon="2.27252">
        <ele>187.11</ele>
        <time>2020-06-30T16:12:17Z</time>
      </trkpt>
      <trkpt lat="43.95085" lon="2.27243">
        <ele>189.04</ele>
        <time>2020-06-30T16:12:21Z</time>
      </trkpt>
      <trkpt lat="43.95093" lon="2.27227">
        <ele>193.36</ele>
        <time>2020-06-30T16:12:30Z</time>
      </trkpt>
      <trkpt lat="43.95096" lon="2.27214">
        <ele>195.77</ele>
        <time>2020-06-30T16:12:37Z</time>
      </trkpt>
      <trkpt lat="43.95099" lon="2.27197">
        <ele>196.73</ele>
        <time>2020-06-30T16:12:45Z</time>
      </trkpt>
      <trkpt lat="43.95101" lon="2.27181">
        <ele>195.28</ele>
        <time>2020-06-30T16:12:54Z</time>
      </trkpt>
      <trkpt lat="43.95101" lon="2.27173">
        <ele>195.77</ele>
        <time>2020-06-30T16:13:01Z</time>
      </trkpt>
      <trkpt lat="43.95095" lon="2.27174">
        <ele>197.69</ele>
        <time>2020-06-30T16:13:08Z</time>
      </trkpt>
      <trkpt lat="43.95089" lon="2.27176">
        <ele>199.13</ele>
        <time>2020-06-30T16:13:15Z</time>
      </trkpt>
      <trkpt lat="43.95085" lon="2.27175">
        <ele>199.13</ele>
        <time>2020-06-30T16:13:31Z</time>
      </trkpt>
      <trkpt lat="43.95085" lon="2.27173">
        <ele>201.05</ele>
        <time>2020-06-30T16:13:44Z</time>
      </trkpt>
      <trkpt lat="43.95085" lon="2.27173">
        <ele>204.42</ele>
        <time>2020-06-30T16:13:58Z</time>
      </trkpt>
      <trkpt lat="43.95085" lon="2.27174">
        <ele>208.26</ele>
        <time>2020-06-30T16:14:10Z</time>
      </trkpt>
      <trkpt lat="43.95085" lon="2.27173">
        <ele>209.7</ele>
        <time>2020-06-30T16:14:19Z</time>
      </trkpt>
      <trkpt lat="43.95084" lon="2.27178">
        <ele>213.07</ele>
        <time>2020-06-30T16:14:33Z</time>
      </trkpt>
      <trkpt lat="43.95076" lon="2.27183">
        <ele>214.03</ele>
        <time>2020-06-30T16:14:41Z</time>
      </trkpt>
      <trkpt lat="43.95066" lon="2.27193">
        <ele>213.07</ele>
        <time>2020-06-30T16:14:50Z</time>
      </trkpt>
      <trkpt lat="43.95057" lon="2.27204">
        <ele>212.59</ele>
        <time>2020-06-30T16:14:59Z</time>
      </trkpt>
      <trkpt lat="43.95048" lon="2.27214">
        <ele>210.67</ele>
        <time>2020-06-30T16:15:08Z</time>
      </trkpt>
      <trkpt lat="43.9504" lon="2.27228">
        <ele>210.19</ele>
        <time>2020-06-30T16:15:16Z</time>
      </trkpt>
      <trkpt lat="43.95038" lon="2.27231">
        <ele>210.19</ele>
        <time>2020-06-30T16:15:18Z</time>
      </trkpt>
      <trkpt lat="43.95026" lon="2.27246">
        <ele>209.22</ele>
        <time>2020-06-30T16:15:28Z</time>
      </trkpt>
      <trkpt lat="43.95017" lon="2.27254">
        <ele>207.78</ele>
        <time>2020-06-30T16:15:35Z</time>
      </trkpt>
      <trkpt lat="43.95011" lon="2.27257">
        <ele>206.82</ele>
        <time>2020-06-30T16:15:39Z</time>
      </trkpt>
      <trkpt lat="43.94998" lon="2.27262">
        <ele>204.42</ele>
        <time>2020-06-30T16:15:48Z</time>
      </trkpt>
      <trkpt lat="43.94988" lon="2.27266">
        <ele>203.46</ele>
        <time>2020-06-30T16:15:54Z</time>
      </trkpt>
      <trkpt lat="43.94983" lon="2.2727">
        <ele>202.98</ele>
        <time>2020-06-30T16:15:58Z</time>
      </trkpt>
      <trkpt lat="43.94971" lon="2.27274">
        <ele>202.01</ele>
        <time>2020-06-30T16:16:07Z</time>
      </trkpt>
      <trkpt lat="43.94961" lon="2.27278">
        <ele>201.05</ele>
        <time>2020-06-30T16:16:15Z</time>
      </trkpt>
      <trkpt lat="43.94957" lon="2.27281">
        <ele>200.09</ele>
        <time>2020-06-30T16:16:18Z</time>
      </trkpt>
      <trkpt lat="43.94951" lon="2.27289">
        <ele>198.65</ele>
        <time>2020-06-30T16:16:26Z</time>
      </trkpt>
      <trkpt lat="43.94943" lon="2.273">
        <ele>196.25</ele>
        <time>2020-06-30T16:16:33Z</time>
      </trkpt>
      <trkpt lat="43.94938" lon="2.27307">
        <ele>195.28</ele>
        <time>2020-06-30T16:16:38Z</time>
      </trkpt>
      <trkpt lat="43.94927" lon="2.27323">
        <ele>193.36</ele>
        <time>2020-06-30T16:16:48Z</time>
      </trkpt>
      <trkpt lat="43.94921" lon="2.27333">
        <ele>191.92</ele>
        <time>2020-06-30T16:16:55Z</time>
      </trkpt>
      <trkpt lat="43.94914" lon="2.27346">
        <ele>191.92</ele>
        <time>2020-06-30T16:17:04Z</time>
      </trkpt>
      <trkpt lat="43.9491" lon="2.27361">
        <ele>191.92</ele>
        <time>2020-06-30T16:17:11Z</time>
      </trkpt>
      <trkpt lat="43.94898" lon="2.27384">
        <ele>196.25</ele>
        <time>2020-06-30T16:17:19Z</time>
      </trkpt>
      <trkpt lat="43.94892" lon="2.27399">
        <ele>195.28</ele>
        <time>2020-06-30T16:17:28Z</time>
      </trkpt>
      <trkpt lat="43.94891" lon="2.274">
        <ele>194.8</ele>
        <time>2020-06-30T16:17:29Z</time>
      </trkpt>
      <trkpt lat="43.94884" lon="2.27406">
        <ele>194.8</ele>
        <time>2020-06-30T16:17:36Z</time>
      </trkpt>
      <trkpt lat="43.94876" lon="2.27418">
        <ele>194.8</ele>
        <time>2020-06-30T16:17:44Z</time>
      </trkpt>
      <trkpt lat="43.94863" lon="2.27435">
        <ele>200.09</ele>
        <time>2020-06-30T16:17:52Z</time>
      </trkpt>
      <trkpt lat="43.94858" lon="2.27437">
        <ele>201.53</ele>
        <time>2020-06-30T16:17:57Z</time>
      </trkpt>
      <trkpt lat="43.94849" lon="2.27438">
        <ele>204.9</ele>
        <time>2020-06-30T16:18:04Z</time>
      </trkpt>
      <trkpt lat="43.94838" lon="2.27436">
        <ele>207.78</ele>
        <time>2020-06-30T16:18:11Z</time>
      </trkpt>
      <trkpt lat="43.94825" lon="2.27433">
        <ele>212.11</ele>
        <time>2020-06-30T16:18:19Z</time>
      </trkpt>
      <trkpt lat="43.94814" lon="2.27429">
        <ele>213.07</ele>
        <time>2020-06-30T16:18:26Z</time>
      </trkpt>
      <trkpt lat="43.94802" lon="2.27421">
        <ele>212.59</ele>
        <time>2020-06-30T16:18:34Z</time>
      </trkpt>
      <trkpt lat="43.94792" lon="2.27414">
        <ele>212.11</ele>
        <time>2020-06-30T16:18:43Z</time>
      </trkpt>
      <trkpt lat="43.94789" lon="2.2741">
        <ele>212.11</ele>
        <time>2020-06-30T16:18:45Z</time>
      </trkpt>
      <trkpt lat="43.94782" lon="2.27394">
        <ele>212.59</ele>
        <time>2020-06-30T16:18:54Z</time>
      </trkpt>
      <trkpt lat="43.94776" lon="2.27378">
        <ele>211.63</ele>
        <time>2020-06-30T16:19:02Z</time>
      </trkpt>
      <trkpt lat="43.94768" lon="2.27364">
        <ele>210.19</ele>
        <time>2020-06-30T16:19:09Z</time>
      </trkpt>
      <trkpt lat="43.94763" lon="2.27363">
        <ele>210.19</ele>
        <time>2020-06-30T16:19:12Z</time>
      </trkpt>
      <trkpt lat="43.94751" lon="2.27369">
        <ele>207.3</ele>
        <time>2020-06-30T16:19:20Z</time>
      </trkpt>
      <trkpt lat="43.94739" lon="2.27381">
        <ele>203.46</ele>
        <time>2020-06-30T16:19:31Z</time>
      </trkpt>
      <trkpt lat="43.94738" lon="2.27382">
        <ele>202.98</ele>
        <time>2020-06-30T16:19:32Z</time>
      </trkpt>
      <trkpt lat="43.94725" lon="2.27386">
        <ele>199.61</ele>
        <time>2020-06-30T16:19:42Z</time>
      </trkpt>
      <trkpt lat="43.94713" lon="2.27388">
        <ele>198.17</ele>
        <time>2020-06-30T16:19:51Z</time>
      </trkpt>
      <trkpt lat="43.94702" lon="2.27384">
        <ele>199.13</ele>
        <time>2020-06-30T16:19:59Z</time>
      </trkpt>
      <trkpt lat="43.9469" lon="2.27378">
        <ele>200.57</ele>
        <time>2020-06-30T16:20:08Z</time>
      </trkpt>
      <trkpt lat="43.9468" lon="2.27367">
        <ele>200.57</ele>
        <time>2020-06-30T16:20:16Z</time>
      </trkpt>
      <trkpt lat="43.94669" lon="2.27354">
        <ele>200.57</ele>
        <time>2020-06-30T16:20:25Z</time>
      </trkpt>
      <trkpt lat="43.94664" lon="2.27352">
        <ele>200.57</ele>
        <time>2020-06-30T16:20:28Z</time>
      </trkpt>
      <trkpt lat="43.94657" lon="2.27354">
        <ele>200.57</ele>
        <time>2020-06-30T16:20:35Z</time>
      </trkpt>
      <trkpt lat="43.94651" lon="2.27367">
        <ele>200.57</ele>
        <time>2020-06-30T16:20:45Z</time>
      </trkpt>
      <trkpt lat="43.94645" lon="2.27379">
        <ele>199.61</ele>
        <time>2020-06-30T16:20:53Z</time>
      </trkpt>
      <trkpt lat="43.94637" lon="2.27394">
        <ele>199.13</ele>
        <time>2020-06-30T16:21:01Z</time>
      </trkpt>
      <trkpt lat="43.94634" lon="2.27399">
        <ele>199.61</ele>
        <time>2020-06-30T16:21:04Z</time>
      </trkpt>
      <trkpt lat="43.94624" lon="2.27419">
        <ele>202.01</ele>
        <time>2020-06-30T16:21:14Z</time>
      </trkpt>
      <trkpt lat="43.94618" lon="2.27429">
        <ele>201.53</ele>
        <time>2020-06-30T16:21:21Z</time>
      </trkpt>
      <trkpt lat="43.94608" lon="2.27444">
        <ele>201.53</ele>
        <time>2020-06-30T16:21:31Z</time>
      </trkpt>
      <trkpt lat="43.94599" lon="2.27455">
        <ele>200.57</ele>
        <time>2020-06-30T16:21:40Z</time>
      </trkpt>
      <trkpt lat="43.94589" lon="2.27471">
        <ele>199.13</ele>
        <time>2020-06-30T16:21:50Z</time>
      </trkpt>
      <trkpt lat="43.94576" lon="2.27487">
        <ele>197.69</ele>
        <time>2020-06-30T16:22:00Z</time>
      </trkpt>
      <trkpt lat="43.94568" lon="2.27496">
        <ele>195.77</ele>
        <time>2020-06-30T16:22:08Z</time>
      </trkpt>
      <trkpt lat="43.94556" lon="2.27506">
        <ele>193.36</ele>
        <time>2020-06-30T16:22:18Z</time>
      </trkpt>
      <trkpt lat="43.94547" lon="2.27512">
        <ele>190.96</ele>
        <time>2020-06-30T16:22:25Z</time>
      </trkpt>
      <trkpt lat="43.94534" lon="2.27522">
        <ele>187.11</ele>
        <time>2020-06-30T16:22:35Z</time>
      </trkpt>
      <trkpt lat="43.94521" lon="2.27525">
        <ele>185.19</ele>
        <time>2020-06-30T16:22:45Z</time>
      </trkpt>
      <trkpt lat="43.94504" lon="2.27521">
        <ele>188.56</ele>
        <time>2020-06-30T16:22:55Z</time>
      </trkpt>
      <trkpt lat="43.94492" lon="2.27515">
        <ele>189.04</ele>
        <time>2020-06-30T16:23:03Z</time>
      </trkpt>
      <trkpt lat="43.94489" lon="2.27514">
        <ele>189.04</ele>
        <time>2020-06-30T16:23:05Z</time>
      </trkpt>
      <trkpt lat="43.94485" lon="2.2751">
        <ele>188.56</ele>
        <time>2020-06-30T16:23:09Z</time>
      </trkpt>
      <trkpt lat="43.94472" lon="2.27504">
        <ele>186.63</ele>
        <time>2020-06-30T16:23:18Z</time>
      </trkpt>
      <trkpt lat="43.94461" lon="2.27494">
        <ele>189.04</ele>
        <time>2020-06-30T16:23:27Z</time>
      </trkpt>
    </trkseg>
  </trk>
</gpx>